<?xml version="1.0" encoding="UTF-8" standalone="no" ?>
<gpx xmlns="http://www.topografix.com/GPX/1/1" xmlns:xsi="http://www.w3.org/2001/XMLSchema-instance" xsi:schemaLocation="http://www.topografix.com/GPX/1/1 http://www.topografix.com/GPX/1/1/gpx.xsd" version="1.1" creator="VisuGPX - https://www.visugpx.com">
  <metadata>
    <name>OMS CHENOVE Marche du vendredi 11 mai 2012</name>
    <desc><![CDATA[Du lac Kir au lac Kir en passant par Plombieres]]></desc>
  </metadata>
  <trk>
    <name><![CDATA[OMS CHENOVE Marche du vendredi 11 mai 2012_1]]></name>
    <trkseg>
      <trkpt lat="47.32975" lon="4.99685">
        <ele>258.155</ele>
        <time>2012-05-11T08:19:56Z</time>
      </trkpt>
      <trkpt lat="47.32975" lon="4.99685">
        <ele>258.155</ele>
        <time>2012-05-11T08:20:07Z</time>
      </trkpt>
      <trkpt lat="47.32975" lon="4.99685">
        <ele>257.804</ele>
        <time>2012-05-11T08:20:18Z</time>
      </trkpt>
      <trkpt lat="47.32975" lon="4.99685">
        <ele>258.119</ele>
        <time>2012-05-11T08:20:29Z</time>
      </trkpt>
      <trkpt lat="47.32975" lon="4.99685">
        <ele>258.119</ele>
        <time>2012-05-11T08:20:40Z</time>
      </trkpt>
      <trkpt lat="47.32975" lon="4.99685">
        <ele>256.539</ele>
        <time>2012-05-11T08:20:51Z</time>
      </trkpt>
      <trkpt lat="47.32975" lon="4.99685">
        <ele>255.943</ele>
        <time>2012-05-11T08:21:02Z</time>
      </trkpt>
      <trkpt lat="47.32975" lon="4.99685">
        <ele>256.024</ele>
        <time>2012-05-11T08:21:13Z</time>
      </trkpt>
      <trkpt lat="47.32975" lon="4.99683">
        <ele>256.263</ele>
        <time>2012-05-11T08:21:24Z</time>
      </trkpt>
      <trkpt lat="47.32975" lon="4.99685">
        <ele>256.855</ele>
        <time>2012-05-11T08:21:35Z</time>
      </trkpt>
      <trkpt lat="47.32975" lon="4.99685">
        <ele>256.855</ele>
        <time>2012-05-11T08:21:46Z</time>
      </trkpt>
      <trkpt lat="47.32975" lon="4.99685">
        <ele>256.674</ele>
        <time>2012-05-11T08:21:57Z</time>
      </trkpt>
      <trkpt lat="47.32975" lon="4.99685">
        <ele>256.889</ele>
        <time>2012-05-11T08:22:08Z</time>
      </trkpt>
      <trkpt lat="47.32975" lon="4.99683">
        <ele>257.539</ele>
        <time>2012-05-11T08:22:19Z</time>
      </trkpt>
      <trkpt lat="47.32973" lon="4.99682">
        <ele>257.325</ele>
        <time>2012-05-11T08:22:30Z</time>
      </trkpt>
      <trkpt lat="47.3297" lon="4.99667">
        <ele>256.345</ele>
        <time>2012-05-11T08:22:41Z</time>
      </trkpt>
      <trkpt lat="47.32972" lon="4.9965">
        <ele>256.632</ele>
        <time>2012-05-11T08:22:52Z</time>
      </trkpt>
      <trkpt lat="47.32977" lon="4.99635">
        <ele>256.987</ele>
        <time>2012-05-11T08:23:03Z</time>
      </trkpt>
      <trkpt lat="47.32983" lon="4.99618">
        <ele>257.174</ele>
        <time>2012-05-11T08:23:14Z</time>
      </trkpt>
      <trkpt lat="47.3299" lon="4.99602">
        <ele>257.807</ele>
        <time>2012-05-11T08:23:25Z</time>
      </trkpt>
      <trkpt lat="47.32995" lon="4.99585">
        <ele>258.096</ele>
        <time>2012-05-11T08:23:36Z</time>
      </trkpt>
      <trkpt lat="47.33002" lon="4.99568">
        <ele>258.246</ele>
        <time>2012-05-11T08:23:47Z</time>
      </trkpt>
      <trkpt lat="47.33012" lon="4.9955">
        <ele>260.924</ele>
        <time>2012-05-11T08:23:58Z</time>
      </trkpt>
      <trkpt lat="47.33018" lon="4.99535">
        <ele>261.178</ele>
        <time>2012-05-11T08:24:09Z</time>
      </trkpt>
      <trkpt lat="47.33022" lon="4.99515">
        <ele>261.447</ele>
        <time>2012-05-11T08:24:20Z</time>
      </trkpt>
      <trkpt lat="47.33027" lon="4.99493">
        <ele>262.719</ele>
        <time>2012-05-11T08:24:31Z</time>
      </trkpt>
      <trkpt lat="47.3303" lon="4.99477">
        <ele>263.035</ele>
        <time>2012-05-11T08:24:42Z</time>
      </trkpt>
      <trkpt lat="47.33032" lon="4.99457">
        <ele>262.93</ele>
        <time>2012-05-11T08:24:53Z</time>
      </trkpt>
      <trkpt lat="47.33033" lon="4.99435">
        <ele>261.556</ele>
        <time>2012-05-11T08:25:04Z</time>
      </trkpt>
      <trkpt lat="47.33032" lon="4.99413">
        <ele>260.538</ele>
        <time>2012-05-11T08:25:15Z</time>
      </trkpt>
      <trkpt lat="47.33028" lon="4.99392">
        <ele>260.28</ele>
        <time>2012-05-11T08:25:26Z</time>
      </trkpt>
      <trkpt lat="47.33027" lon="4.9937">
        <ele>258.494</ele>
        <time>2012-05-11T08:25:37Z</time>
      </trkpt>
      <trkpt lat="47.33027" lon="4.9935">
        <ele>257.525</ele>
        <time>2012-05-11T08:25:48Z</time>
      </trkpt>
      <trkpt lat="47.33035" lon="4.99332">
        <ele>256.825</ele>
        <time>2012-05-11T08:25:59Z</time>
      </trkpt>
      <trkpt lat="47.3304" lon="4.99312">
        <ele>256.406</ele>
        <time>2012-05-11T08:26:10Z</time>
      </trkpt>
      <trkpt lat="47.33042" lon="4.99288">
        <ele>255.213</ele>
        <time>2012-05-11T08:26:21Z</time>
      </trkpt>
      <trkpt lat="47.33042" lon="4.99267">
        <ele>254.06</ele>
        <time>2012-05-11T08:26:32Z</time>
      </trkpt>
      <trkpt lat="47.33043" lon="4.99247">
        <ele>253.677</ele>
        <time>2012-05-11T08:26:43Z</time>
      </trkpt>
      <trkpt lat="47.33045" lon="4.99227">
        <ele>252.494</ele>
        <time>2012-05-11T08:26:54Z</time>
      </trkpt>
      <trkpt lat="47.33047" lon="4.99205">
        <ele>252.484</ele>
        <time>2012-05-11T08:27:05Z</time>
      </trkpt>
      <trkpt lat="47.3305" lon="4.99185">
        <ele>254.912</ele>
        <time>2012-05-11T08:27:16Z</time>
      </trkpt>
      <trkpt lat="47.33053" lon="4.99167">
        <ele>255.912</ele>
        <time>2012-05-11T08:27:27Z</time>
      </trkpt>
      <trkpt lat="47.3306" lon="4.99148">
        <ele>255.283</ele>
        <time>2012-05-11T08:27:38Z</time>
      </trkpt>
      <trkpt lat="47.33053" lon="4.99132">
        <ele>255.822</ele>
        <time>2012-05-11T08:27:49Z</time>
      </trkpt>
      <trkpt lat="47.3305" lon="4.99115">
        <ele>256.697</ele>
        <time>2012-05-11T08:28:00Z</time>
      </trkpt>
      <trkpt lat="47.33053" lon="4.99097">
        <ele>256.806</ele>
        <time>2012-05-11T08:28:11Z</time>
      </trkpt>
      <trkpt lat="47.33055" lon="4.99077">
        <ele>257.818</ele>
        <time>2012-05-11T08:28:22Z</time>
      </trkpt>
      <trkpt lat="47.33053" lon="4.99057">
        <ele>258.717</ele>
        <time>2012-05-11T08:28:33Z</time>
      </trkpt>
      <trkpt lat="47.33052" lon="4.99037">
        <ele>257.788</ele>
        <time>2012-05-11T08:28:44Z</time>
      </trkpt>
      <trkpt lat="47.33045" lon="4.99015">
        <ele>258.513</ele>
        <time>2012-05-11T08:28:55Z</time>
      </trkpt>
      <trkpt lat="47.33038" lon="4.98998">
        <ele>258.827</ele>
        <time>2012-05-11T08:29:06Z</time>
      </trkpt>
      <trkpt lat="47.33028" lon="4.98982">
        <ele>257.788</ele>
        <time>2012-05-11T08:29:17Z</time>
      </trkpt>
      <trkpt lat="47.33017" lon="4.98967">
        <ele>258.385</ele>
        <time>2012-05-11T08:29:28Z</time>
      </trkpt>
      <trkpt lat="47.33007" lon="4.98953">
        <ele>260.073</ele>
        <time>2012-05-11T08:29:39Z</time>
      </trkpt>
      <trkpt lat="47.32995" lon="4.98938">
        <ele>259.673</ele>
        <time>2012-05-11T08:29:50Z</time>
      </trkpt>
      <trkpt lat="47.32985" lon="4.98927">
        <ele>259.278</ele>
        <time>2012-05-11T08:30:01Z</time>
      </trkpt>
      <trkpt lat="47.32973" lon="4.98913">
        <ele>258.339</ele>
        <time>2012-05-11T08:30:12Z</time>
      </trkpt>
      <trkpt lat="47.3296" lon="4.989">
        <ele>256.938</ele>
        <time>2012-05-11T08:30:23Z</time>
      </trkpt>
      <trkpt lat="47.32947" lon="4.9889">
        <ele>257.273</ele>
        <time>2012-05-11T08:30:34Z</time>
      </trkpt>
      <trkpt lat="47.32933" lon="4.98883">
        <ele>257.853</ele>
        <time>2012-05-11T08:30:45Z</time>
      </trkpt>
      <trkpt lat="47.32918" lon="4.98877">
        <ele>259.61</ele>
        <time>2012-05-11T08:30:56Z</time>
      </trkpt>
      <trkpt lat="47.32908" lon="4.98868">
        <ele>259.883</ele>
        <time>2012-05-11T08:31:07Z</time>
      </trkpt>
      <trkpt lat="47.32898" lon="4.98863">
        <ele>260.262</ele>
        <time>2012-05-11T08:31:18Z</time>
      </trkpt>
      <trkpt lat="47.32883" lon="4.9886">
        <ele>261.419</ele>
        <time>2012-05-11T08:31:29Z</time>
      </trkpt>
      <trkpt lat="47.32872" lon="4.9886">
        <ele>263.27</ele>
        <time>2012-05-11T08:31:40Z</time>
      </trkpt>
      <trkpt lat="47.3286" lon="4.98858">
        <ele>265.067</ele>
        <time>2012-05-11T08:31:51Z</time>
      </trkpt>
      <trkpt lat="47.32852" lon="4.98855">
        <ele>265.915</ele>
        <time>2012-05-11T08:32:02Z</time>
      </trkpt>
      <trkpt lat="47.32852" lon="4.98848">
        <ele>263.677</ele>
        <time>2012-05-11T08:32:13Z</time>
      </trkpt>
      <trkpt lat="47.3286" lon="4.98838">
        <ele>260.774</ele>
        <time>2012-05-11T08:32:24Z</time>
      </trkpt>
      <trkpt lat="47.32872" lon="4.98825">
        <ele>258.012</ele>
        <time>2012-05-11T08:32:35Z</time>
      </trkpt>
      <trkpt lat="47.32883" lon="4.98812">
        <ele>257.211</ele>
        <time>2012-05-11T08:32:46Z</time>
      </trkpt>
      <trkpt lat="47.32895" lon="4.98798">
        <ele>257.625</ele>
        <time>2012-05-11T08:32:57Z</time>
      </trkpt>
      <trkpt lat="47.32905" lon="4.98785">
        <ele>256.564</ele>
        <time>2012-05-11T08:33:08Z</time>
      </trkpt>
      <trkpt lat="47.32917" lon="4.98772">
        <ele>255.634</ele>
        <time>2012-05-11T08:33:19Z</time>
      </trkpt>
      <trkpt lat="47.32928" lon="4.9876">
        <ele>255.929</ele>
        <time>2012-05-11T08:33:30Z</time>
      </trkpt>
      <trkpt lat="47.32937" lon="4.98743">
        <ele>254.996</ele>
        <time>2012-05-11T08:33:41Z</time>
      </trkpt>
      <trkpt lat="47.32945" lon="4.98725">
        <ele>254.719</ele>
        <time>2012-05-11T08:33:52Z</time>
      </trkpt>
      <trkpt lat="47.32952" lon="4.98712">
        <ele>254.227</ele>
        <time>2012-05-11T08:34:03Z</time>
      </trkpt>
      <trkpt lat="47.32953" lon="4.98708">
        <ele>254.152</ele>
        <time>2012-05-11T08:34:14Z</time>
      </trkpt>
      <trkpt lat="47.32953" lon="4.98708">
        <ele>254.23</ele>
        <time>2012-05-11T08:34:25Z</time>
      </trkpt>
      <trkpt lat="47.32948" lon="4.98697">
        <ele>254.171</ele>
        <time>2012-05-11T08:34:36Z</time>
      </trkpt>
      <trkpt lat="47.3294" lon="4.98685">
        <ele>255.055</ele>
        <time>2012-05-11T08:34:47Z</time>
      </trkpt>
      <trkpt lat="47.32932" lon="4.98678">
        <ele>256.433</ele>
        <time>2012-05-11T08:34:58Z</time>
      </trkpt>
      <trkpt lat="47.32925" lon="4.98668">
        <ele>258.404</ele>
        <time>2012-05-11T08:35:09Z</time>
      </trkpt>
      <trkpt lat="47.3292" lon="4.98663">
        <ele>260.874</ele>
        <time>2012-05-11T08:35:20Z</time>
      </trkpt>
      <trkpt lat="47.32912" lon="4.98655">
        <ele>262.862</ele>
        <time>2012-05-11T08:35:31Z</time>
      </trkpt>
      <trkpt lat="47.32902" lon="4.98648">
        <ele>264.242</ele>
        <time>2012-05-11T08:35:42Z</time>
      </trkpt>
      <trkpt lat="47.32895" lon="4.98643">
        <ele>264.879</ele>
        <time>2012-05-11T08:35:53Z</time>
      </trkpt>
      <trkpt lat="47.32883" lon="4.98638">
        <ele>265.8</ele>
        <time>2012-05-11T08:36:04Z</time>
      </trkpt>
      <trkpt lat="47.3287" lon="4.98628">
        <ele>265.596</ele>
        <time>2012-05-11T08:36:15Z</time>
      </trkpt>
      <trkpt lat="47.32868" lon="4.9861">
        <ele>263.103</ele>
        <time>2012-05-11T08:36:26Z</time>
      </trkpt>
      <trkpt lat="47.3287" lon="4.98593">
        <ele>261.794</ele>
        <time>2012-05-11T08:36:37Z</time>
      </trkpt>
      <trkpt lat="47.32873" lon="4.9858">
        <ele>259.688</ele>
        <time>2012-05-11T08:36:48Z</time>
      </trkpt>
      <trkpt lat="47.32877" lon="4.98565">
        <ele>258.676</ele>
        <time>2012-05-11T08:36:59Z</time>
      </trkpt>
      <trkpt lat="47.3288" lon="4.98552">
        <ele>256.83</ele>
        <time>2012-05-11T08:37:10Z</time>
      </trkpt>
      <trkpt lat="47.32882" lon="4.98535">
        <ele>256.063</ele>
        <time>2012-05-11T08:37:21Z</time>
      </trkpt>
      <trkpt lat="47.32885" lon="4.9852">
        <ele>254.913</ele>
        <time>2012-05-11T08:37:32Z</time>
      </trkpt>
      <trkpt lat="47.32888" lon="4.98507">
        <ele>253.878</ele>
        <time>2012-05-11T08:37:43Z</time>
      </trkpt>
      <trkpt lat="47.32893" lon="4.9849">
        <ele>254.97</ele>
        <time>2012-05-11T08:37:54Z</time>
      </trkpt>
      <trkpt lat="47.32898" lon="4.98477">
        <ele>254.51</ele>
        <time>2012-05-11T08:38:05Z</time>
      </trkpt>
      <trkpt lat="47.32902" lon="4.98465">
        <ele>253.415</ele>
        <time>2012-05-11T08:38:16Z</time>
      </trkpt>
      <trkpt lat="47.32907" lon="4.98455">
        <ele>253.66</ele>
        <time>2012-05-11T08:38:27Z</time>
      </trkpt>
      <trkpt lat="47.32918" lon="4.98442">
        <ele>254.377</ele>
        <time>2012-05-11T08:38:38Z</time>
      </trkpt>
      <trkpt lat="47.32928" lon="4.9843">
        <ele>255.093</ele>
        <time>2012-05-11T08:38:49Z</time>
      </trkpt>
      <trkpt lat="47.3294" lon="4.98417">
        <ele>256.983</ele>
        <time>2012-05-11T08:39:00Z</time>
      </trkpt>
      <trkpt lat="47.3295" lon="4.98407">
        <ele>260.068</ele>
        <time>2012-05-11T08:39:11Z</time>
      </trkpt>
      <trkpt lat="47.3296" lon="4.98397">
        <ele>262.777</ele>
        <time>2012-05-11T08:39:22Z</time>
      </trkpt>
      <trkpt lat="47.32967" lon="4.98393">
        <ele>262.721</ele>
        <time>2012-05-11T08:39:33Z</time>
      </trkpt>
      <trkpt lat="47.32973" lon="4.98392">
        <ele>262.813</ele>
        <time>2012-05-11T08:39:44Z</time>
      </trkpt>
      <trkpt lat="47.32983" lon="4.98388">
        <ele>265.379</ele>
        <time>2012-05-11T08:39:55Z</time>
      </trkpt>
      <trkpt lat="47.32997" lon="4.9838">
        <ele>265.767</ele>
        <time>2012-05-11T08:40:06Z</time>
      </trkpt>
      <trkpt lat="47.33005" lon="4.98375">
        <ele>267.428</ele>
        <time>2012-05-11T08:40:17Z</time>
      </trkpt>
      <trkpt lat="47.33017" lon="4.98365">
        <ele>267.167</ele>
        <time>2012-05-11T08:40:28Z</time>
      </trkpt>
      <trkpt lat="47.33028" lon="4.98355">
        <ele>268.305</ele>
        <time>2012-05-11T08:40:39Z</time>
      </trkpt>
      <trkpt lat="47.3304" lon="4.98342">
        <ele>267.738</ele>
        <time>2012-05-11T08:40:50Z</time>
      </trkpt>
      <trkpt lat="47.33043" lon="4.98337">
        <ele>267.99</ele>
        <time>2012-05-11T08:41:01Z</time>
      </trkpt>
      <trkpt lat="47.33045" lon="4.98333">
        <ele>267.028</ele>
        <time>2012-05-11T08:41:12Z</time>
      </trkpt>
      <trkpt lat="47.33048" lon="4.98328">
        <ele>266.045</ele>
        <time>2012-05-11T08:41:23Z</time>
      </trkpt>
      <trkpt lat="47.33058" lon="4.98313">
        <ele>264.497</ele>
        <time>2012-05-11T08:41:34Z</time>
      </trkpt>
      <trkpt lat="47.33068" lon="4.98298">
        <ele>265.974</ele>
        <time>2012-05-11T08:41:45Z</time>
      </trkpt>
      <trkpt lat="47.33082" lon="4.98282">
        <ele>265.745</ele>
        <time>2012-05-11T08:41:56Z</time>
      </trkpt>
      <trkpt lat="47.33092" lon="4.98265">
        <ele>264.08</ele>
        <time>2012-05-11T08:42:07Z</time>
      </trkpt>
      <trkpt lat="47.33105" lon="4.98247">
        <ele>263.291</ele>
        <time>2012-05-11T08:42:18Z</time>
      </trkpt>
      <trkpt lat="47.33117" lon="4.98228">
        <ele>260.292</ele>
        <time>2012-05-11T08:42:29Z</time>
      </trkpt>
      <trkpt lat="47.33128" lon="4.98212">
        <ele>258.342</ele>
        <time>2012-05-11T08:42:40Z</time>
      </trkpt>
      <trkpt lat="47.33138" lon="4.98192">
        <ele>256.793</ele>
        <time>2012-05-11T08:42:51Z</time>
      </trkpt>
      <trkpt lat="47.3315" lon="4.98175">
        <ele>255.391</ele>
        <time>2012-05-11T08:43:02Z</time>
      </trkpt>
      <trkpt lat="47.33162" lon="4.98162">
        <ele>255.781</ele>
        <time>2012-05-11T08:43:13Z</time>
      </trkpt>
      <trkpt lat="47.33172" lon="4.9815">
        <ele>255.438</ele>
        <time>2012-05-11T08:43:24Z</time>
      </trkpt>
      <trkpt lat="47.33178" lon="4.98142">
        <ele>255.096</ele>
        <time>2012-05-11T08:43:35Z</time>
      </trkpt>
      <trkpt lat="47.33187" lon="4.98135">
        <ele>255.756</ele>
        <time>2012-05-11T08:43:46Z</time>
      </trkpt>
      <trkpt lat="47.33198" lon="4.98125">
        <ele>257.673</ele>
        <time>2012-05-11T08:43:57Z</time>
      </trkpt>
      <trkpt lat="47.33207" lon="4.98118">
        <ele>258.424</ele>
        <time>2012-05-11T08:44:08Z</time>
      </trkpt>
      <trkpt lat="47.33218" lon="4.98107">
        <ele>257.856</ele>
        <time>2012-05-11T08:44:19Z</time>
      </trkpt>
      <trkpt lat="47.3323" lon="4.98097">
        <ele>258.125</ele>
        <time>2012-05-11T08:44:30Z</time>
      </trkpt>
      <trkpt lat="47.33237" lon="4.98092">
        <ele>258.153</ele>
        <time>2012-05-11T08:44:41Z</time>
      </trkpt>
      <trkpt lat="47.33248" lon="4.98085">
        <ele>260.261</ele>
        <time>2012-05-11T08:44:52Z</time>
      </trkpt>
      <trkpt lat="47.33263" lon="4.98077">
        <ele>259.975</ele>
        <time>2012-05-11T08:45:03Z</time>
      </trkpt>
      <trkpt lat="47.33277" lon="4.9806">
        <ele>257.802</ele>
        <time>2012-05-11T08:45:14Z</time>
      </trkpt>
      <trkpt lat="47.33288" lon="4.98043">
        <ele>258.46</ele>
        <time>2012-05-11T08:45:25Z</time>
      </trkpt>
      <trkpt lat="47.33302" lon="4.98028">
        <ele>258.632</ele>
        <time>2012-05-11T08:45:36Z</time>
      </trkpt>
      <trkpt lat="47.33303" lon="4.98023">
        <ele>256.667</ele>
        <time>2012-05-11T08:45:47Z</time>
      </trkpt>
      <trkpt lat="47.33308" lon="4.98008">
        <ele>256.097</ele>
        <time>2012-05-11T08:45:58Z</time>
      </trkpt>
      <trkpt lat="47.33317" lon="4.97992">
        <ele>254.941</ele>
        <time>2012-05-11T08:46:09Z</time>
      </trkpt>
      <trkpt lat="47.33323" lon="4.97977">
        <ele>254.846</ele>
        <time>2012-05-11T08:46:20Z</time>
      </trkpt>
      <trkpt lat="47.3333" lon="4.97962">
        <ele>254.366</ele>
        <time>2012-05-11T08:46:31Z</time>
      </trkpt>
      <trkpt lat="47.33338" lon="4.97943">
        <ele>253.856</ele>
        <time>2012-05-11T08:46:42Z</time>
      </trkpt>
      <trkpt lat="47.33347" lon="4.97925">
        <ele>251.385</ele>
        <time>2012-05-11T08:46:53Z</time>
      </trkpt>
      <trkpt lat="47.33353" lon="4.9791">
        <ele>250.104</ele>
        <time>2012-05-11T08:47:04Z</time>
      </trkpt>
      <trkpt lat="47.3336" lon="4.97895">
        <ele>249.858</ele>
        <time>2012-05-11T08:47:15Z</time>
      </trkpt>
      <trkpt lat="47.33368" lon="4.9788">
        <ele>249.973</ele>
        <time>2012-05-11T08:47:26Z</time>
      </trkpt>
      <trkpt lat="47.33375" lon="4.97865">
        <ele>250.102</ele>
        <time>2012-05-11T08:47:37Z</time>
      </trkpt>
      <trkpt lat="47.33383" lon="4.97847">
        <ele>249.186</ele>
        <time>2012-05-11T08:47:48Z</time>
      </trkpt>
      <trkpt lat="47.3339" lon="4.97832">
        <ele>249.271</ele>
        <time>2012-05-11T08:47:59Z</time>
      </trkpt>
      <trkpt lat="47.33397" lon="4.97818">
        <ele>249.571</ele>
        <time>2012-05-11T08:48:10Z</time>
      </trkpt>
      <trkpt lat="47.33403" lon="4.97803">
        <ele>250.615</ele>
        <time>2012-05-11T08:48:21Z</time>
      </trkpt>
      <trkpt lat="47.3341" lon="4.97792">
        <ele>251.962</ele>
        <time>2012-05-11T08:48:32Z</time>
      </trkpt>
      <trkpt lat="47.33417" lon="4.97777">
        <ele>251.059</ele>
        <time>2012-05-11T08:48:43Z</time>
      </trkpt>
      <trkpt lat="47.33422" lon="4.97762">
        <ele>251.963</ele>
        <time>2012-05-11T08:48:54Z</time>
      </trkpt>
      <trkpt lat="47.33427" lon="4.97747">
        <ele>251.377</ele>
        <time>2012-05-11T08:49:05Z</time>
      </trkpt>
      <trkpt lat="47.33435" lon="4.97732">
        <ele>252.324</ele>
        <time>2012-05-11T08:49:16Z</time>
      </trkpt>
      <trkpt lat="47.33443" lon="4.97715">
        <ele>251.77</ele>
        <time>2012-05-11T08:49:27Z</time>
      </trkpt>
      <trkpt lat="47.3345" lon="4.977">
        <ele>252.159</ele>
        <time>2012-05-11T08:49:38Z</time>
      </trkpt>
      <trkpt lat="47.33458" lon="4.97685">
        <ele>252.542</ele>
        <time>2012-05-11T08:49:49Z</time>
      </trkpt>
      <trkpt lat="47.33463" lon="4.9767">
        <ele>252.71</ele>
        <time>2012-05-11T08:50:00Z</time>
      </trkpt>
      <trkpt lat="47.33468" lon="4.9766">
        <ele>252.431</ele>
        <time>2012-05-11T08:50:11Z</time>
      </trkpt>
      <trkpt lat="47.33477" lon="4.97643">
        <ele>253.041</ele>
        <time>2012-05-11T08:50:22Z</time>
      </trkpt>
      <trkpt lat="47.33482" lon="4.97628">
        <ele>252.95</ele>
        <time>2012-05-11T08:50:33Z</time>
      </trkpt>
      <trkpt lat="47.33488" lon="4.97617">
        <ele>253.075</ele>
        <time>2012-05-11T08:50:44Z</time>
      </trkpt>
      <trkpt lat="47.33493" lon="4.97602">
        <ele>250.188</ele>
        <time>2012-05-11T08:50:55Z</time>
      </trkpt>
      <trkpt lat="47.33502" lon="4.97583">
        <ele>250.686</ele>
        <time>2012-05-11T08:51:06Z</time>
      </trkpt>
      <trkpt lat="47.33508" lon="4.97568">
        <ele>250.375</ele>
        <time>2012-05-11T08:51:17Z</time>
      </trkpt>
      <trkpt lat="47.33515" lon="4.97552">
        <ele>249.865</ele>
        <time>2012-05-11T08:51:28Z</time>
      </trkpt>
      <trkpt lat="47.33522" lon="4.9754">
        <ele>250.864</ele>
        <time>2012-05-11T08:51:39Z</time>
      </trkpt>
      <trkpt lat="47.33528" lon="4.97523">
        <ele>251.209</ele>
        <time>2012-05-11T08:51:50Z</time>
      </trkpt>
      <trkpt lat="47.33537" lon="4.97503">
        <ele>251.766</ele>
        <time>2012-05-11T08:52:01Z</time>
      </trkpt>
      <trkpt lat="47.33547" lon="4.97495">
        <ele>253.742</ele>
        <time>2012-05-11T08:52:12Z</time>
      </trkpt>
      <trkpt lat="47.3356" lon="4.97483">
        <ele>253.441</ele>
        <time>2012-05-11T08:52:23Z</time>
      </trkpt>
      <trkpt lat="47.33572" lon="4.9747">
        <ele>253.809</ele>
        <time>2012-05-11T08:52:34Z</time>
      </trkpt>
      <trkpt lat="47.33585" lon="4.97455">
        <ele>253.378</ele>
        <time>2012-05-11T08:52:45Z</time>
      </trkpt>
      <trkpt lat="47.336" lon="4.97438">
        <ele>252.511</ele>
        <time>2012-05-11T08:52:56Z</time>
      </trkpt>
      <trkpt lat="47.33612" lon="4.97425">
        <ele>251.2</ele>
        <time>2012-05-11T08:53:07Z</time>
      </trkpt>
      <trkpt lat="47.33627" lon="4.97413">
        <ele>250.795</ele>
        <time>2012-05-11T08:53:18Z</time>
      </trkpt>
      <trkpt lat="47.33642" lon="4.97405">
        <ele>250.252</ele>
        <time>2012-05-11T08:53:29Z</time>
      </trkpt>
      <trkpt lat="47.33657" lon="4.97407">
        <ele>250.386</ele>
        <time>2012-05-11T08:53:40Z</time>
      </trkpt>
      <trkpt lat="47.33668" lon="4.9742">
        <ele>253.404</ele>
        <time>2012-05-11T08:53:51Z</time>
      </trkpt>
      <trkpt lat="47.33683" lon="4.9741">
        <ele>253.848</ele>
        <time>2012-05-11T08:54:02Z</time>
      </trkpt>
      <trkpt lat="47.33698" lon="4.97398">
        <ele>252.302</ele>
        <time>2012-05-11T08:54:13Z</time>
      </trkpt>
      <trkpt lat="47.33712" lon="4.97385">
        <ele>251.55</ele>
        <time>2012-05-11T08:54:24Z</time>
      </trkpt>
      <trkpt lat="47.33725" lon="4.9738">
        <ele>251.881</ele>
        <time>2012-05-11T08:54:35Z</time>
      </trkpt>
      <trkpt lat="47.33737" lon="4.97377">
        <ele>253.005</ele>
        <time>2012-05-11T08:54:46Z</time>
      </trkpt>
      <trkpt lat="47.3375" lon="4.9737">
        <ele>253.713</ele>
        <time>2012-05-11T08:54:57Z</time>
      </trkpt>
      <trkpt lat="47.3376" lon="4.97367">
        <ele>254.46</ele>
        <time>2012-05-11T08:55:08Z</time>
      </trkpt>
      <trkpt lat="47.33773" lon="4.97358">
        <ele>255.716</ele>
        <time>2012-05-11T08:55:19Z</time>
      </trkpt>
      <trkpt lat="47.33788" lon="4.97353">
        <ele>257.413</ele>
        <time>2012-05-11T08:55:30Z</time>
      </trkpt>
      <trkpt lat="47.33802" lon="4.97357">
        <ele>260.298</ele>
        <time>2012-05-11T08:55:41Z</time>
      </trkpt>
      <trkpt lat="47.33812" lon="4.97358">
        <ele>262.092</ele>
        <time>2012-05-11T08:55:52Z</time>
      </trkpt>
      <trkpt lat="47.33827" lon="4.9736">
        <ele>264.032</ele>
        <time>2012-05-11T08:56:03Z</time>
      </trkpt>
      <trkpt lat="47.33837" lon="4.9736">
        <ele>265.232</ele>
        <time>2012-05-11T08:56:14Z</time>
      </trkpt>
      <trkpt lat="47.3385" lon="4.97357">
        <ele>265.658</ele>
        <time>2012-05-11T08:56:25Z</time>
      </trkpt>
      <trkpt lat="47.33865" lon="4.97352">
        <ele>265.811</ele>
        <time>2012-05-11T08:56:36Z</time>
      </trkpt>
      <trkpt lat="47.33875" lon="4.9734">
        <ele>267.024</ele>
        <time>2012-05-11T08:56:47Z</time>
      </trkpt>
      <trkpt lat="47.33883" lon="4.97327">
        <ele>267.965</ele>
        <time>2012-05-11T08:56:58Z</time>
      </trkpt>
      <trkpt lat="47.33893" lon="4.97313">
        <ele>267.735</ele>
        <time>2012-05-11T08:57:09Z</time>
      </trkpt>
      <trkpt lat="47.339" lon="4.973">
        <ele>267.509</ele>
        <time>2012-05-11T08:57:20Z</time>
      </trkpt>
      <trkpt lat="47.3391" lon="4.97283">
        <ele>267.336</ele>
        <time>2012-05-11T08:57:31Z</time>
      </trkpt>
      <trkpt lat="47.33917" lon="4.97265">
        <ele>268.958</ele>
        <time>2012-05-11T08:57:42Z</time>
      </trkpt>
      <trkpt lat="47.33912" lon="4.9725">
        <ele>268.792</ele>
        <time>2012-05-11T08:57:53Z</time>
      </trkpt>
      <trkpt lat="47.33908" lon="4.97233">
        <ele>269.602</ele>
        <time>2012-05-11T08:58:04Z</time>
      </trkpt>
      <trkpt lat="47.33903" lon="4.97217">
        <ele>270.267</ele>
        <time>2012-05-11T08:58:15Z</time>
      </trkpt>
      <trkpt lat="47.33895" lon="4.97202">
        <ele>271.321</ele>
        <time>2012-05-11T08:58:26Z</time>
      </trkpt>
      <trkpt lat="47.33887" lon="4.9719">
        <ele>270.365</ele>
        <time>2012-05-11T08:58:37Z</time>
      </trkpt>
      <trkpt lat="47.3388" lon="4.97175">
        <ele>270.654</ele>
        <time>2012-05-11T08:58:48Z</time>
      </trkpt>
      <trkpt lat="47.3387" lon="4.9716">
        <ele>270.266</ele>
        <time>2012-05-11T08:58:59Z</time>
      </trkpt>
      <trkpt lat="47.3386" lon="4.97147">
        <ele>270.366</ele>
        <time>2012-05-11T08:59:10Z</time>
      </trkpt>
      <trkpt lat="47.33852" lon="4.9713">
        <ele>271.031</ele>
        <time>2012-05-11T08:59:21Z</time>
      </trkpt>
      <trkpt lat="47.3384" lon="4.97112">
        <ele>271.304</ele>
        <time>2012-05-11T08:59:32Z</time>
      </trkpt>
      <trkpt lat="47.33832" lon="4.971">
        <ele>270.84</ele>
        <time>2012-05-11T08:59:43Z</time>
      </trkpt>
      <trkpt lat="47.33825" lon="4.97087">
        <ele>267.959</ele>
        <time>2012-05-11T08:59:54Z</time>
      </trkpt>
      <trkpt lat="47.33815" lon="4.97073">
        <ele>265.802</ele>
        <time>2012-05-11T09:00:05Z</time>
      </trkpt>
      <trkpt lat="47.33807" lon="4.97057">
        <ele>265.838</ele>
        <time>2012-05-11T09:00:16Z</time>
      </trkpt>
      <trkpt lat="47.33798" lon="4.97043">
        <ele>265.277</ele>
        <time>2012-05-11T09:00:27Z</time>
      </trkpt>
      <trkpt lat="47.33788" lon="4.97032">
        <ele>265.487</ele>
        <time>2012-05-11T09:00:38Z</time>
      </trkpt>
      <trkpt lat="47.33777" lon="4.97018">
        <ele>265.182</ele>
        <time>2012-05-11T09:00:49Z</time>
      </trkpt>
      <trkpt lat="47.33767" lon="4.97003">
        <ele>264.04</ele>
        <time>2012-05-11T09:01:00Z</time>
      </trkpt>
      <trkpt lat="47.33757" lon="4.96988">
        <ele>262.017</ele>
        <time>2012-05-11T09:01:11Z</time>
      </trkpt>
      <trkpt lat="47.33748" lon="4.96977">
        <ele>261.421</ele>
        <time>2012-05-11T09:01:22Z</time>
      </trkpt>
      <trkpt lat="47.33738" lon="4.96965">
        <ele>260.223</ele>
        <time>2012-05-11T09:01:33Z</time>
      </trkpt>
      <trkpt lat="47.3373" lon="4.96953">
        <ele>259.413</ele>
        <time>2012-05-11T09:01:44Z</time>
      </trkpt>
      <trkpt lat="47.3373" lon="4.96953">
        <ele>259.846</ele>
        <time>2012-05-11T09:01:55Z</time>
      </trkpt>
      <trkpt lat="47.33727" lon="4.96955">
        <ele>260.244</ele>
        <time>2012-05-11T09:02:06Z</time>
      </trkpt>
      <trkpt lat="47.33722" lon="4.9696">
        <ele>260.057</ele>
        <time>2012-05-11T09:02:17Z</time>
      </trkpt>
      <trkpt lat="47.33718" lon="4.96963">
        <ele>259.8</ele>
        <time>2012-05-11T09:02:28Z</time>
      </trkpt>
      <trkpt lat="47.33713" lon="4.96968">
        <ele>259.607</ele>
        <time>2012-05-11T09:02:39Z</time>
      </trkpt>
      <trkpt lat="47.33702" lon="4.96988">
        <ele>258.779</ele>
        <time>2012-05-11T09:02:50Z</time>
      </trkpt>
      <trkpt lat="47.33692" lon="4.97007">
        <ele>257.883</ele>
        <time>2012-05-11T09:03:01Z</time>
      </trkpt>
      <trkpt lat="47.3368" lon="4.97022">
        <ele>259.764</ele>
        <time>2012-05-11T09:03:12Z</time>
      </trkpt>
      <trkpt lat="47.33673" lon="4.97038">
        <ele>260.449</ele>
        <time>2012-05-11T09:03:23Z</time>
      </trkpt>
      <trkpt lat="47.33662" lon="4.97057">
        <ele>259.618</ele>
        <time>2012-05-11T09:03:34Z</time>
      </trkpt>
      <trkpt lat="47.33655" lon="4.97078">
        <ele>258.825</ele>
        <time>2012-05-11T09:03:45Z</time>
      </trkpt>
      <trkpt lat="47.3365" lon="4.97098">
        <ele>258.804</ele>
        <time>2012-05-11T09:03:56Z</time>
      </trkpt>
      <trkpt lat="47.33643" lon="4.97118">
        <ele>257.327</ele>
        <time>2012-05-11T09:04:07Z</time>
      </trkpt>
      <trkpt lat="47.33633" lon="4.97137">
        <ele>255.54</ele>
        <time>2012-05-11T09:04:18Z</time>
      </trkpt>
      <trkpt lat="47.33632" lon="4.97158">
        <ele>255.155</ele>
        <time>2012-05-11T09:04:29Z</time>
      </trkpt>
      <trkpt lat="47.33632" lon="4.97178">
        <ele>256.832</ele>
        <time>2012-05-11T09:04:40Z</time>
      </trkpt>
      <trkpt lat="47.33635" lon="4.97198">
        <ele>259.702</ele>
        <time>2012-05-11T09:04:51Z</time>
      </trkpt>
      <trkpt lat="47.33623" lon="4.97215">
        <ele>258.79</ele>
        <time>2012-05-11T09:05:02Z</time>
      </trkpt>
      <trkpt lat="47.33618" lon="4.97233">
        <ele>258.436</ele>
        <time>2012-05-11T09:05:13Z</time>
      </trkpt>
      <trkpt lat="47.33613" lon="4.97253">
        <ele>258.463</ele>
        <time>2012-05-11T09:05:24Z</time>
      </trkpt>
      <trkpt lat="47.33603" lon="4.97272">
        <ele>256.822</ele>
        <time>2012-05-11T09:05:35Z</time>
      </trkpt>
      <trkpt lat="47.33577" lon="4.9729">
        <ele>254.074</ele>
        <time>2012-05-11T09:05:46Z</time>
      </trkpt>
      <trkpt lat="47.33568" lon="4.97307">
        <ele>254.108</ele>
        <time>2012-05-11T09:05:57Z</time>
      </trkpt>
      <trkpt lat="47.33555" lon="4.97325">
        <ele>253.38</ele>
        <time>2012-05-11T09:06:08Z</time>
      </trkpt>
      <trkpt lat="47.33545" lon="4.9734">
        <ele>253.776</ele>
        <time>2012-05-11T09:06:19Z</time>
      </trkpt>
      <trkpt lat="47.33535" lon="4.9736">
        <ele>253.948</ele>
        <time>2012-05-11T09:06:30Z</time>
      </trkpt>
      <trkpt lat="47.33525" lon="4.97378">
        <ele>253.841</ele>
        <time>2012-05-11T09:06:41Z</time>
      </trkpt>
      <trkpt lat="47.33513" lon="4.97395">
        <ele>253.927</ele>
        <time>2012-05-11T09:06:52Z</time>
      </trkpt>
      <trkpt lat="47.33505" lon="4.97413">
        <ele>254.284</ele>
        <time>2012-05-11T09:07:03Z</time>
      </trkpt>
      <trkpt lat="47.33495" lon="4.97432">
        <ele>255.668</ele>
        <time>2012-05-11T09:07:14Z</time>
      </trkpt>
      <trkpt lat="47.33487" lon="4.97452">
        <ele>256.043</ele>
        <time>2012-05-11T09:07:25Z</time>
      </trkpt>
      <trkpt lat="47.33478" lon="4.9747">
        <ele>255.788</ele>
        <time>2012-05-11T09:07:36Z</time>
      </trkpt>
      <trkpt lat="47.33472" lon="4.97485">
        <ele>255.833</ele>
        <time>2012-05-11T09:07:47Z</time>
      </trkpt>
      <trkpt lat="47.33463" lon="4.97503">
        <ele>256.541</ele>
        <time>2012-05-11T09:07:58Z</time>
      </trkpt>
      <trkpt lat="47.33455" lon="4.97522">
        <ele>256.886</ele>
        <time>2012-05-11T09:08:09Z</time>
      </trkpt>
      <trkpt lat="47.33448" lon="4.97537">
        <ele>257.096</ele>
        <time>2012-05-11T09:08:20Z</time>
      </trkpt>
      <trkpt lat="47.33438" lon="4.97557">
        <ele>257.836</ele>
        <time>2012-05-11T09:08:31Z</time>
      </trkpt>
      <trkpt lat="47.3343" lon="4.97575">
        <ele>259.335</ele>
        <time>2012-05-11T09:08:42Z</time>
      </trkpt>
      <trkpt lat="47.33422" lon="4.97593">
        <ele>259.54</ele>
        <time>2012-05-11T09:08:53Z</time>
      </trkpt>
      <trkpt lat="47.33413" lon="4.97613">
        <ele>257.976</ele>
        <time>2012-05-11T09:09:04Z</time>
      </trkpt>
      <trkpt lat="47.33407" lon="4.9763">
        <ele>258.324</ele>
        <time>2012-05-11T09:09:15Z</time>
      </trkpt>
      <trkpt lat="47.33402" lon="4.9765">
        <ele>260.56</ele>
        <time>2012-05-11T09:09:26Z</time>
      </trkpt>
      <trkpt lat="47.33395" lon="4.97668">
        <ele>262.489</ele>
        <time>2012-05-11T09:09:37Z</time>
      </trkpt>
      <trkpt lat="47.33387" lon="4.97687">
        <ele>262.441</ele>
        <time>2012-05-11T09:09:48Z</time>
      </trkpt>
      <trkpt lat="47.3338" lon="4.97703">
        <ele>262.911</ele>
        <time>2012-05-11T09:09:59Z</time>
      </trkpt>
      <trkpt lat="47.33368" lon="4.97722">
        <ele>261.797</ele>
        <time>2012-05-11T09:10:10Z</time>
      </trkpt>
      <trkpt lat="47.33353" lon="4.97743">
        <ele>260.777</ele>
        <time>2012-05-11T09:10:21Z</time>
      </trkpt>
      <trkpt lat="47.33343" lon="4.97765">
        <ele>261.53</ele>
        <time>2012-05-11T09:10:32Z</time>
      </trkpt>
      <trkpt lat="47.33333" lon="4.97785">
        <ele>262.99</ele>
        <time>2012-05-11T09:10:43Z</time>
      </trkpt>
      <trkpt lat="47.33325" lon="4.97805">
        <ele>263.235</ele>
        <time>2012-05-11T09:10:54Z</time>
      </trkpt>
      <trkpt lat="47.33315" lon="4.97825">
        <ele>262.374</ele>
        <time>2012-05-11T09:11:05Z</time>
      </trkpt>
      <trkpt lat="47.33307" lon="4.9784">
        <ele>262.895</ele>
        <time>2012-05-11T09:11:16Z</time>
      </trkpt>
      <trkpt lat="47.33297" lon="4.97857">
        <ele>263.062</ele>
        <time>2012-05-11T09:11:27Z</time>
      </trkpt>
      <trkpt lat="47.33288" lon="4.97875">
        <ele>262.637</ele>
        <time>2012-05-11T09:11:38Z</time>
      </trkpt>
      <trkpt lat="47.3328" lon="4.97893">
        <ele>262.558</ele>
        <time>2012-05-11T09:11:49Z</time>
      </trkpt>
      <trkpt lat="47.33273" lon="4.97912">
        <ele>262.115</ele>
        <time>2012-05-11T09:12:00Z</time>
      </trkpt>
      <trkpt lat="47.33265" lon="4.97928">
        <ele>261.183</ele>
        <time>2012-05-11T09:12:11Z</time>
      </trkpt>
      <trkpt lat="47.33257" lon="4.97945">
        <ele>260.452</ele>
        <time>2012-05-11T09:12:22Z</time>
      </trkpt>
      <trkpt lat="47.33257" lon="4.97955">
        <ele>259.327</ele>
        <time>2012-05-11T09:12:33Z</time>
      </trkpt>
      <trkpt lat="47.3325" lon="4.97965">
        <ele>257.953</ele>
        <time>2012-05-11T09:12:44Z</time>
      </trkpt>
      <trkpt lat="47.33242" lon="4.97975">
        <ele>258.892</ele>
        <time>2012-05-11T09:12:55Z</time>
      </trkpt>
      <trkpt lat="47.33225" lon="4.97983">
        <ele>258.461</ele>
        <time>2012-05-11T09:13:06Z</time>
      </trkpt>
      <trkpt lat="47.33212" lon="4.97995">
        <ele>256.681</ele>
        <time>2012-05-11T09:13:17Z</time>
      </trkpt>
      <trkpt lat="47.33195" lon="4.98003">
        <ele>254.533</ele>
        <time>2012-05-11T09:13:28Z</time>
      </trkpt>
      <trkpt lat="47.3318" lon="4.98013">
        <ele>253.357</ele>
        <time>2012-05-11T09:13:39Z</time>
      </trkpt>
      <trkpt lat="47.33165" lon="4.98023">
        <ele>252.222</ele>
        <time>2012-05-11T09:13:50Z</time>
      </trkpt>
      <trkpt lat="47.3315" lon="4.98035">
        <ele>253.018</ele>
        <time>2012-05-11T09:14:01Z</time>
      </trkpt>
      <trkpt lat="47.33138" lon="4.98043">
        <ele>253.939</ele>
        <time>2012-05-11T09:14:12Z</time>
      </trkpt>
      <trkpt lat="47.33127" lon="4.98055">
        <ele>253.937</ele>
        <time>2012-05-11T09:14:23Z</time>
      </trkpt>
      <trkpt lat="47.33113" lon="4.98068">
        <ele>254.365</ele>
        <time>2012-05-11T09:14:34Z</time>
      </trkpt>
      <trkpt lat="47.33105" lon="4.9808">
        <ele>255.536</ele>
        <time>2012-05-11T09:14:45Z</time>
      </trkpt>
      <trkpt lat="47.33093" lon="4.98087">
        <ele>257.052</ele>
        <time>2012-05-11T09:14:56Z</time>
      </trkpt>
      <trkpt lat="47.33087" lon="4.98093">
        <ele>257.841</ele>
        <time>2012-05-11T09:15:07Z</time>
      </trkpt>
      <trkpt lat="47.33087" lon="4.98093">
        <ele>257.841</ele>
        <time>2012-05-11T09:15:18Z</time>
      </trkpt>
      <trkpt lat="47.33087" lon="4.98095">
        <ele>257.714</ele>
        <time>2012-05-11T09:15:29Z</time>
      </trkpt>
      <trkpt lat="47.33087" lon="4.98095">
        <ele>257.714</ele>
        <time>2012-05-11T09:15:40Z</time>
      </trkpt>
      <trkpt lat="47.33087" lon="4.98095">
        <ele>257.714</ele>
        <time>2012-05-11T09:15:51Z</time>
      </trkpt>
      <trkpt lat="47.33087" lon="4.98095">
        <ele>257.636</ele>
        <time>2012-05-11T09:16:02Z</time>
      </trkpt>
      <trkpt lat="47.33087" lon="4.98095">
        <ele>257.94</ele>
        <time>2012-05-11T09:16:13Z</time>
      </trkpt>
      <trkpt lat="47.33087" lon="4.98095">
        <ele>257.94</ele>
        <time>2012-05-11T09:16:24Z</time>
      </trkpt>
      <trkpt lat="47.33087" lon="4.98095">
        <ele>258.549</ele>
        <time>2012-05-11T09:16:35Z</time>
      </trkpt>
      <trkpt lat="47.33087" lon="4.98097">
        <ele>258.731</ele>
        <time>2012-05-11T09:16:46Z</time>
      </trkpt>
      <trkpt lat="47.33087" lon="4.98097">
        <ele>258.731</ele>
        <time>2012-05-11T09:16:57Z</time>
      </trkpt>
      <trkpt lat="47.33085" lon="4.98098">
        <ele>259.358</ele>
        <time>2012-05-11T09:17:08Z</time>
      </trkpt>
      <trkpt lat="47.33077" lon="4.9811">
        <ele>259.776</ele>
        <time>2012-05-11T09:17:19Z</time>
      </trkpt>
      <trkpt lat="47.33068" lon="4.98122">
        <ele>261.48</ele>
        <time>2012-05-11T09:17:30Z</time>
      </trkpt>
      <trkpt lat="47.3306" lon="4.98133">
        <ele>260.977</ele>
        <time>2012-05-11T09:17:41Z</time>
      </trkpt>
      <trkpt lat="47.33052" lon="4.98142">
        <ele>260.418</ele>
        <time>2012-05-11T09:17:52Z</time>
      </trkpt>
      <trkpt lat="47.33042" lon="4.98147">
        <ele>261.78</ele>
        <time>2012-05-11T09:18:03Z</time>
      </trkpt>
      <trkpt lat="47.33035" lon="4.98138">
        <ele>261.801</ele>
        <time>2012-05-11T09:18:14Z</time>
      </trkpt>
      <trkpt lat="47.3303" lon="4.98133">
        <ele>262.402</ele>
        <time>2012-05-11T09:18:25Z</time>
      </trkpt>
      <trkpt lat="47.33027" lon="4.9813">
        <ele>263.468</ele>
        <time>2012-05-11T09:18:36Z</time>
      </trkpt>
      <trkpt lat="47.33025" lon="4.98118">
        <ele>265.414</ele>
        <time>2012-05-11T09:18:47Z</time>
      </trkpt>
      <trkpt lat="47.33025" lon="4.98118">
        <ele>265.441</ele>
        <time>2012-05-11T09:18:58Z</time>
      </trkpt>
      <trkpt lat="47.33023" lon="4.9812">
        <ele>265.263</ele>
        <time>2012-05-11T09:19:09Z</time>
      </trkpt>
      <trkpt lat="47.33022" lon="4.98127">
        <ele>265.446</ele>
        <time>2012-05-11T09:19:20Z</time>
      </trkpt>
      <trkpt lat="47.3302" lon="4.98128">
        <ele>264.54</ele>
        <time>2012-05-11T09:19:31Z</time>
      </trkpt>
      <trkpt lat="47.33017" lon="4.98132">
        <ele>265.299</ele>
        <time>2012-05-11T09:19:42Z</time>
      </trkpt>
      <trkpt lat="47.3301" lon="4.98138">
        <ele>266.945</ele>
        <time>2012-05-11T09:19:53Z</time>
      </trkpt>
      <trkpt lat="47.33003" lon="4.98147">
        <ele>267.674</ele>
        <time>2012-05-11T09:20:04Z</time>
      </trkpt>
      <trkpt lat="47.32995" lon="4.98153">
        <ele>268.571</ele>
        <time>2012-05-11T09:20:15Z</time>
      </trkpt>
      <trkpt lat="47.32985" lon="4.98163">
        <ele>270.011</ele>
        <time>2012-05-11T09:20:26Z</time>
      </trkpt>
      <trkpt lat="47.32973" lon="4.9817">
        <ele>269.977</ele>
        <time>2012-05-11T09:20:37Z</time>
      </trkpt>
      <trkpt lat="47.32965" lon="4.98178">
        <ele>269.554</ele>
        <time>2012-05-11T09:20:48Z</time>
      </trkpt>
      <trkpt lat="47.32953" lon="4.9819">
        <ele>269.503</ele>
        <time>2012-05-11T09:20:59Z</time>
      </trkpt>
      <trkpt lat="47.32945" lon="4.98202">
        <ele>268.895</ele>
        <time>2012-05-11T09:21:10Z</time>
      </trkpt>
      <trkpt lat="47.32937" lon="4.98212">
        <ele>270.496</ele>
        <time>2012-05-11T09:21:21Z</time>
      </trkpt>
      <trkpt lat="47.32928" lon="4.98218">
        <ele>271.229</ele>
        <time>2012-05-11T09:21:32Z</time>
      </trkpt>
      <trkpt lat="47.3292" lon="4.98225">
        <ele>272.559</ele>
        <time>2012-05-11T09:21:43Z</time>
      </trkpt>
      <trkpt lat="47.3291" lon="4.98235">
        <ele>273.17</ele>
        <time>2012-05-11T09:21:54Z</time>
      </trkpt>
      <trkpt lat="47.32898" lon="4.98247">
        <ele>273.475</ele>
        <time>2012-05-11T09:22:05Z</time>
      </trkpt>
      <trkpt lat="47.32887" lon="4.98263">
        <ele>273.833</ele>
        <time>2012-05-11T09:22:16Z</time>
      </trkpt>
      <trkpt lat="47.32885" lon="4.98265">
        <ele>273.39</ele>
        <time>2012-05-11T09:22:27Z</time>
      </trkpt>
      <trkpt lat="47.32885" lon="4.98267">
        <ele>273.562</ele>
        <time>2012-05-11T09:22:38Z</time>
      </trkpt>
      <trkpt lat="47.3288" lon="4.98275">
        <ele>273.87</ele>
        <time>2012-05-11T09:22:49Z</time>
      </trkpt>
      <trkpt lat="47.32873" lon="4.98282">
        <ele>274.541</ele>
        <time>2012-05-11T09:23:00Z</time>
      </trkpt>
      <trkpt lat="47.32873" lon="4.98292">
        <ele>276.109</ele>
        <time>2012-05-11T09:23:11Z</time>
      </trkpt>
      <trkpt lat="47.32865" lon="4.98302">
        <ele>277.772</ele>
        <time>2012-05-11T09:23:22Z</time>
      </trkpt>
      <trkpt lat="47.32855" lon="4.98315">
        <ele>278.565</ele>
        <time>2012-05-11T09:23:33Z</time>
      </trkpt>
      <trkpt lat="47.32845" lon="4.98325">
        <ele>278.83</ele>
        <time>2012-05-11T09:23:44Z</time>
      </trkpt>
      <trkpt lat="47.32837" lon="4.98338">
        <ele>279.295</ele>
        <time>2012-05-11T09:23:55Z</time>
      </trkpt>
      <trkpt lat="47.32833" lon="4.98348">
        <ele>278.442</ele>
        <time>2012-05-11T09:24:06Z</time>
      </trkpt>
      <trkpt lat="47.32817" lon="4.98365">
        <ele>278.719</ele>
        <time>2012-05-11T09:24:17Z</time>
      </trkpt>
      <trkpt lat="47.32805" lon="4.98382">
        <ele>278.99</ele>
        <time>2012-05-11T09:24:28Z</time>
      </trkpt>
      <trkpt lat="47.32798" lon="4.98397">
        <ele>281.176</ele>
        <time>2012-05-11T09:24:39Z</time>
      </trkpt>
      <trkpt lat="47.32795" lon="4.98407">
        <ele>285.038</ele>
        <time>2012-05-11T09:24:50Z</time>
      </trkpt>
      <trkpt lat="47.32792" lon="4.98412">
        <ele>287.57</ele>
        <time>2012-05-11T09:25:01Z</time>
      </trkpt>
      <trkpt lat="47.32787" lon="4.98418">
        <ele>287.887</ele>
        <time>2012-05-11T09:25:12Z</time>
      </trkpt>
      <trkpt lat="47.32783" lon="4.98423">
        <ele>288.278</ele>
        <time>2012-05-11T09:25:23Z</time>
      </trkpt>
      <trkpt lat="47.3278" lon="4.98427">
        <ele>287.99</ele>
        <time>2012-05-11T09:25:34Z</time>
      </trkpt>
      <trkpt lat="47.32777" lon="4.98432">
        <ele>288.651</ele>
        <time>2012-05-11T09:25:45Z</time>
      </trkpt>
      <trkpt lat="47.32767" lon="4.98445">
        <ele>288.87</ele>
        <time>2012-05-11T09:25:56Z</time>
      </trkpt>
      <trkpt lat="47.3276" lon="4.98457">
        <ele>289.687</ele>
        <time>2012-05-11T09:26:07Z</time>
      </trkpt>
      <trkpt lat="47.3275" lon="4.98473">
        <ele>289.278</ele>
        <time>2012-05-11T09:26:18Z</time>
      </trkpt>
      <trkpt lat="47.32743" lon="4.98488">
        <ele>290.607</ele>
        <time>2012-05-11T09:26:29Z</time>
      </trkpt>
      <trkpt lat="47.32737" lon="4.98505">
        <ele>291.059</ele>
        <time>2012-05-11T09:26:40Z</time>
      </trkpt>
      <trkpt lat="47.32733" lon="4.98513">
        <ele>290.443</ele>
        <time>2012-05-11T09:26:51Z</time>
      </trkpt>
      <trkpt lat="47.32727" lon="4.9853">
        <ele>291.026</ele>
        <time>2012-05-11T09:27:02Z</time>
      </trkpt>
      <trkpt lat="47.32722" lon="4.98547">
        <ele>291.598</ele>
        <time>2012-05-11T09:27:13Z</time>
      </trkpt>
      <trkpt lat="47.32718" lon="4.98562">
        <ele>291.912</ele>
        <time>2012-05-11T09:27:24Z</time>
      </trkpt>
      <trkpt lat="47.32713" lon="4.98573">
        <ele>291.839</ele>
        <time>2012-05-11T09:27:35Z</time>
      </trkpt>
      <trkpt lat="47.32713" lon="4.98577">
        <ele>291.705</ele>
        <time>2012-05-11T09:27:46Z</time>
      </trkpt>
      <trkpt lat="47.32712" lon="4.98578">
        <ele>291.201</ele>
        <time>2012-05-11T09:27:57Z</time>
      </trkpt>
      <trkpt lat="47.32712" lon="4.98578">
        <ele>291.209</ele>
        <time>2012-05-11T09:28:08Z</time>
      </trkpt>
      <trkpt lat="47.32712" lon="4.98578">
        <ele>291.209</ele>
        <time>2012-05-11T09:28:19Z</time>
      </trkpt>
      <trkpt lat="47.32712" lon="4.98578">
        <ele>291.209</ele>
        <time>2012-05-11T09:28:30Z</time>
      </trkpt>
      <trkpt lat="47.32712" lon="4.9858">
        <ele>291.489</ele>
        <time>2012-05-11T09:28:41Z</time>
      </trkpt>
      <trkpt lat="47.32712" lon="4.9858">
        <ele>291.632</ele>
        <time>2012-05-11T09:28:52Z</time>
      </trkpt>
      <trkpt lat="47.3271" lon="4.98587">
        <ele>291.587</ele>
        <time>2012-05-11T09:29:03Z</time>
      </trkpt>
      <trkpt lat="47.3271" lon="4.98587">
        <ele>291.404</ele>
        <time>2012-05-11T09:29:14Z</time>
      </trkpt>
      <trkpt lat="47.32708" lon="4.98585">
        <ele>291.619</ele>
        <time>2012-05-11T09:29:25Z</time>
      </trkpt>
      <trkpt lat="47.32707" lon="4.98577">
        <ele>292.264</ele>
        <time>2012-05-11T09:29:36Z</time>
      </trkpt>
      <trkpt lat="47.32707" lon="4.98568">
        <ele>293.708</ele>
        <time>2012-05-11T09:29:47Z</time>
      </trkpt>
      <trkpt lat="47.32705" lon="4.98558">
        <ele>295.132</ele>
        <time>2012-05-11T09:29:58Z</time>
      </trkpt>
      <trkpt lat="47.32703" lon="4.98545">
        <ele>296.094</ele>
        <time>2012-05-11T09:30:09Z</time>
      </trkpt>
      <trkpt lat="47.32703" lon="4.98538">
        <ele>297.059</ele>
        <time>2012-05-11T09:30:20Z</time>
      </trkpt>
      <trkpt lat="47.32703" lon="4.98525">
        <ele>298.556</ele>
        <time>2012-05-11T09:30:31Z</time>
      </trkpt>
      <trkpt lat="47.32705" lon="4.9852">
        <ele>299.101</ele>
        <time>2012-05-11T09:30:42Z</time>
      </trkpt>
      <trkpt lat="47.32707" lon="4.98507">
        <ele>300.671</ele>
        <time>2012-05-11T09:30:53Z</time>
      </trkpt>
      <trkpt lat="47.32707" lon="4.98493">
        <ele>299.534</ele>
        <time>2012-05-11T09:31:04Z</time>
      </trkpt>
      <trkpt lat="47.32707" lon="4.98482">
        <ele>300.6</ele>
        <time>2012-05-11T09:31:15Z</time>
      </trkpt>
      <trkpt lat="47.32707" lon="4.98468">
        <ele>302.139</ele>
        <time>2012-05-11T09:31:26Z</time>
      </trkpt>
      <trkpt lat="47.32707" lon="4.98457">
        <ele>304.26</ele>
        <time>2012-05-11T09:31:37Z</time>
      </trkpt>
      <trkpt lat="47.32707" lon="4.98438">
        <ele>305.428</ele>
        <time>2012-05-11T09:31:48Z</time>
      </trkpt>
      <trkpt lat="47.32703" lon="4.98427">
        <ele>305.498</ele>
        <time>2012-05-11T09:31:59Z</time>
      </trkpt>
      <trkpt lat="47.32702" lon="4.98422">
        <ele>306.151</ele>
        <time>2012-05-11T09:32:10Z</time>
      </trkpt>
      <trkpt lat="47.327" lon="4.98413">
        <ele>309.288</ele>
        <time>2012-05-11T09:32:21Z</time>
      </trkpt>
      <trkpt lat="47.32697" lon="4.98405">
        <ele>311.735</ele>
        <time>2012-05-11T09:32:32Z</time>
      </trkpt>
      <trkpt lat="47.32697" lon="4.98405">
        <ele>311.748</ele>
        <time>2012-05-11T09:32:43Z</time>
      </trkpt>
      <trkpt lat="47.32695" lon="4.98403">
        <ele>312.121</ele>
        <time>2012-05-11T09:32:54Z</time>
      </trkpt>
      <trkpt lat="47.32693" lon="4.98403">
        <ele>312.382</ele>
        <time>2012-05-11T09:33:05Z</time>
      </trkpt>
      <trkpt lat="47.32693" lon="4.98402">
        <ele>312.813</ele>
        <time>2012-05-11T09:33:16Z</time>
      </trkpt>
      <trkpt lat="47.3269" lon="4.98397">
        <ele>314.36</ele>
        <time>2012-05-11T09:33:27Z</time>
      </trkpt>
      <trkpt lat="47.32688" lon="4.98395">
        <ele>314.325</ele>
        <time>2012-05-11T09:33:38Z</time>
      </trkpt>
      <trkpt lat="47.32687" lon="4.98393">
        <ele>314.228</ele>
        <time>2012-05-11T09:33:49Z</time>
      </trkpt>
      <trkpt lat="47.32685" lon="4.98392">
        <ele>317.263</ele>
        <time>2012-05-11T09:34:00Z</time>
      </trkpt>
      <trkpt lat="47.32683" lon="4.98392">
        <ele>317.799</ele>
        <time>2012-05-11T09:34:11Z</time>
      </trkpt>
      <trkpt lat="47.32682" lon="4.98392">
        <ele>318.453</ele>
        <time>2012-05-11T09:34:22Z</time>
      </trkpt>
      <trkpt lat="47.32678" lon="4.98395">
        <ele>319.736</ele>
        <time>2012-05-11T09:34:33Z</time>
      </trkpt>
      <trkpt lat="47.32678" lon="4.98395">
        <ele>319.736</ele>
        <time>2012-05-11T09:34:44Z</time>
      </trkpt>
      <trkpt lat="47.32675" lon="4.98398">
        <ele>318.969</ele>
        <time>2012-05-11T09:34:55Z</time>
      </trkpt>
      <trkpt lat="47.32673" lon="4.98398">
        <ele>319.025</ele>
        <time>2012-05-11T09:35:06Z</time>
      </trkpt>
      <trkpt lat="47.3267" lon="4.984">
        <ele>319.966</ele>
        <time>2012-05-11T09:35:17Z</time>
      </trkpt>
      <trkpt lat="47.32668" lon="4.98402">
        <ele>321.186</ele>
        <time>2012-05-11T09:35:28Z</time>
      </trkpt>
      <trkpt lat="47.32655" lon="4.98405">
        <ele>327.481</ele>
        <time>2012-05-11T09:35:39Z</time>
      </trkpt>
      <trkpt lat="47.32653" lon="4.98408">
        <ele>328.368</ele>
        <time>2012-05-11T09:35:50Z</time>
      </trkpt>
      <trkpt lat="47.32653" lon="4.98408">
        <ele>328.495</ele>
        <time>2012-05-11T09:36:01Z</time>
      </trkpt>
      <trkpt lat="47.32653" lon="4.98408">
        <ele>328.938</ele>
        <time>2012-05-11T09:36:12Z</time>
      </trkpt>
      <trkpt lat="47.3265" lon="4.98413">
        <ele>330.765</ele>
        <time>2012-05-11T09:36:23Z</time>
      </trkpt>
      <trkpt lat="47.32647" lon="4.9842">
        <ele>333.109</ele>
        <time>2012-05-11T09:36:34Z</time>
      </trkpt>
      <trkpt lat="47.32643" lon="4.9843">
        <ele>333.855</ele>
        <time>2012-05-11T09:36:45Z</time>
      </trkpt>
      <trkpt lat="47.3264" lon="4.98442">
        <ele>334.916</ele>
        <time>2012-05-11T09:36:56Z</time>
      </trkpt>
      <trkpt lat="47.32637" lon="4.98448">
        <ele>335.919</ele>
        <time>2012-05-11T09:37:07Z</time>
      </trkpt>
      <trkpt lat="47.32637" lon="4.98448">
        <ele>335.919</ele>
        <time>2012-05-11T09:37:18Z</time>
      </trkpt>
      <trkpt lat="47.32637" lon="4.98448">
        <ele>335.919</ele>
        <time>2012-05-11T09:37:29Z</time>
      </trkpt>
      <trkpt lat="47.32637" lon="4.98455">
        <ele>338.111</ele>
        <time>2012-05-11T09:37:40Z</time>
      </trkpt>
      <trkpt lat="47.32632" lon="4.9847">
        <ele>338.677</ele>
        <time>2012-05-11T09:37:51Z</time>
      </trkpt>
      <trkpt lat="47.32623" lon="4.98487">
        <ele>339.042</ele>
        <time>2012-05-11T09:38:02Z</time>
      </trkpt>
      <trkpt lat="47.32618" lon="4.985">
        <ele>342.029</ele>
        <time>2012-05-11T09:38:13Z</time>
      </trkpt>
      <trkpt lat="47.32612" lon="4.98517">
        <ele>345.571</ele>
        <time>2012-05-11T09:38:24Z</time>
      </trkpt>
      <trkpt lat="47.32605" lon="4.98527">
        <ele>346.512</ele>
        <time>2012-05-11T09:38:35Z</time>
      </trkpt>
      <trkpt lat="47.32605" lon="4.98527">
        <ele>346.512</ele>
        <time>2012-05-11T09:38:46Z</time>
      </trkpt>
      <trkpt lat="47.32605" lon="4.98527">
        <ele>346.512</ele>
        <time>2012-05-11T09:38:57Z</time>
      </trkpt>
      <trkpt lat="47.32605" lon="4.98527">
        <ele>346.512</ele>
        <time>2012-05-11T09:39:08Z</time>
      </trkpt>
      <trkpt lat="47.32603" lon="4.9853">
        <ele>346.894</ele>
        <time>2012-05-11T09:39:19Z</time>
      </trkpt>
      <trkpt lat="47.32603" lon="4.98542">
        <ele>346.503</ele>
        <time>2012-05-11T09:39:30Z</time>
      </trkpt>
      <trkpt lat="47.32607" lon="4.9855">
        <ele>346.169</ele>
        <time>2012-05-11T09:39:41Z</time>
      </trkpt>
      <trkpt lat="47.32608" lon="4.98563">
        <ele>347.122</ele>
        <time>2012-05-11T09:39:52Z</time>
      </trkpt>
      <trkpt lat="47.3261" lon="4.98567">
        <ele>346.648</ele>
        <time>2012-05-11T09:40:03Z</time>
      </trkpt>
      <trkpt lat="47.32612" lon="4.9857">
        <ele>346.647</ele>
        <time>2012-05-11T09:40:14Z</time>
      </trkpt>
      <trkpt lat="47.32613" lon="4.98577">
        <ele>346.31</ele>
        <time>2012-05-11T09:40:25Z</time>
      </trkpt>
      <trkpt lat="47.32613" lon="4.98577">
        <ele>346.31</ele>
        <time>2012-05-11T09:40:36Z</time>
      </trkpt>
      <trkpt lat="47.32613" lon="4.98577">
        <ele>346.31</ele>
        <time>2012-05-11T09:40:47Z</time>
      </trkpt>
      <trkpt lat="47.32613" lon="4.98578">
        <ele>345.92</ele>
        <time>2012-05-11T09:40:58Z</time>
      </trkpt>
      <trkpt lat="47.32613" lon="4.98578">
        <ele>345.931</ele>
        <time>2012-05-11T09:41:09Z</time>
      </trkpt>
      <trkpt lat="47.32613" lon="4.98578">
        <ele>345.931</ele>
        <time>2012-05-11T09:41:20Z</time>
      </trkpt>
      <trkpt lat="47.32613" lon="4.98578">
        <ele>345.931</ele>
        <time>2012-05-11T09:41:31Z</time>
      </trkpt>
      <trkpt lat="47.32613" lon="4.98578">
        <ele>345.931</ele>
        <time>2012-05-11T09:41:42Z</time>
      </trkpt>
      <trkpt lat="47.32613" lon="4.98578">
        <ele>345.931</ele>
        <time>2012-05-11T09:41:53Z</time>
      </trkpt>
      <trkpt lat="47.32613" lon="4.98578">
        <ele>345.931</ele>
        <time>2012-05-11T09:42:04Z</time>
      </trkpt>
      <trkpt lat="47.32613" lon="4.98578">
        <ele>345.931</ele>
        <time>2012-05-11T09:42:15Z</time>
      </trkpt>
      <trkpt lat="47.32613" lon="4.98578">
        <ele>345.931</ele>
        <time>2012-05-11T09:42:26Z</time>
      </trkpt>
      <trkpt lat="47.32615" lon="4.98578">
        <ele>346.702</ele>
        <time>2012-05-11T09:42:37Z</time>
      </trkpt>
      <trkpt lat="47.32615" lon="4.98578">
        <ele>346.729</ele>
        <time>2012-05-11T09:42:48Z</time>
      </trkpt>
      <trkpt lat="47.32615" lon="4.9858">
        <ele>346.967</ele>
        <time>2012-05-11T09:42:59Z</time>
      </trkpt>
      <trkpt lat="47.32615" lon="4.98582">
        <ele>347.267</ele>
        <time>2012-05-11T09:43:10Z</time>
      </trkpt>
      <trkpt lat="47.32615" lon="4.98585">
        <ele>347.473</ele>
        <time>2012-05-11T09:43:21Z</time>
      </trkpt>
      <trkpt lat="47.32612" lon="4.9859">
        <ele>346.58</ele>
        <time>2012-05-11T09:43:32Z</time>
      </trkpt>
      <trkpt lat="47.32607" lon="4.98602">
        <ele>345.942</ele>
        <time>2012-05-11T09:43:43Z</time>
      </trkpt>
      <trkpt lat="47.326" lon="4.98608">
        <ele>345.3</ele>
        <time>2012-05-11T09:43:54Z</time>
      </trkpt>
      <trkpt lat="47.326" lon="4.9861">
        <ele>345.268</ele>
        <time>2012-05-11T09:44:05Z</time>
      </trkpt>
      <trkpt lat="47.326" lon="4.9861">
        <ele>345.384</ele>
        <time>2012-05-11T09:44:16Z</time>
      </trkpt>
      <trkpt lat="47.32598" lon="4.98612">
        <ele>345.251</ele>
        <time>2012-05-11T09:44:27Z</time>
      </trkpt>
      <trkpt lat="47.32598" lon="4.98613">
        <ele>344.347</ele>
        <time>2012-05-11T09:44:38Z</time>
      </trkpt>
      <trkpt lat="47.32593" lon="4.9862">
        <ele>342.918</ele>
        <time>2012-05-11T09:44:49Z</time>
      </trkpt>
      <trkpt lat="47.32588" lon="4.98627">
        <ele>343.249</ele>
        <time>2012-05-11T09:45:00Z</time>
      </trkpt>
      <trkpt lat="47.32585" lon="4.98628">
        <ele>344.809</ele>
        <time>2012-05-11T09:45:11Z</time>
      </trkpt>
      <trkpt lat="47.3258" lon="4.98638">
        <ele>345.843</ele>
        <time>2012-05-11T09:45:22Z</time>
      </trkpt>
      <trkpt lat="47.32575" lon="4.98643">
        <ele>348.693</ele>
        <time>2012-05-11T09:45:33Z</time>
      </trkpt>
      <trkpt lat="47.32567" lon="4.9865">
        <ele>349.423</ele>
        <time>2012-05-11T09:45:44Z</time>
      </trkpt>
      <trkpt lat="47.32555" lon="4.98662">
        <ele>349.072</ele>
        <time>2012-05-11T09:45:55Z</time>
      </trkpt>
      <trkpt lat="47.32542" lon="4.9867">
        <ele>348.167</ele>
        <time>2012-05-11T09:46:06Z</time>
      </trkpt>
      <trkpt lat="47.32527" lon="4.98677">
        <ele>347.072</ele>
        <time>2012-05-11T09:46:17Z</time>
      </trkpt>
      <trkpt lat="47.32513" lon="4.98678">
        <ele>347.066</ele>
        <time>2012-05-11T09:46:28Z</time>
      </trkpt>
      <trkpt lat="47.325" lon="4.9868">
        <ele>347.257</ele>
        <time>2012-05-11T09:46:39Z</time>
      </trkpt>
      <trkpt lat="47.32487" lon="4.98677">
        <ele>347.114</ele>
        <time>2012-05-11T09:46:50Z</time>
      </trkpt>
      <trkpt lat="47.32473" lon="4.98673">
        <ele>347.081</ele>
        <time>2012-05-11T09:47:01Z</time>
      </trkpt>
      <trkpt lat="47.3246" lon="4.98677">
        <ele>346.755</ele>
        <time>2012-05-11T09:47:12Z</time>
      </trkpt>
      <trkpt lat="47.32448" lon="4.98677">
        <ele>346.233</ele>
        <time>2012-05-11T09:47:23Z</time>
      </trkpt>
      <trkpt lat="47.32447" lon="4.98658">
        <ele>348.215</ele>
        <time>2012-05-11T09:47:34Z</time>
      </trkpt>
      <trkpt lat="47.32445" lon="4.98637">
        <ele>349.906</ele>
        <time>2012-05-11T09:47:45Z</time>
      </trkpt>
      <trkpt lat="47.32442" lon="4.98615">
        <ele>350.093</ele>
        <time>2012-05-11T09:47:56Z</time>
      </trkpt>
      <trkpt lat="47.3243" lon="4.98602">
        <ele>350.541</ele>
        <time>2012-05-11T09:48:07Z</time>
      </trkpt>
      <trkpt lat="47.32415" lon="4.986">
        <ele>348.847</ele>
        <time>2012-05-11T09:48:18Z</time>
      </trkpt>
      <trkpt lat="47.32402" lon="4.98598">
        <ele>347.249</ele>
        <time>2012-05-11T09:48:29Z</time>
      </trkpt>
      <trkpt lat="47.32387" lon="4.98597">
        <ele>346.111</ele>
        <time>2012-05-11T09:48:40Z</time>
      </trkpt>
      <trkpt lat="47.32375" lon="4.9859">
        <ele>345.405</ele>
        <time>2012-05-11T09:48:51Z</time>
      </trkpt>
      <trkpt lat="47.32362" lon="4.98582">
        <ele>345.512</ele>
        <time>2012-05-11T09:49:02Z</time>
      </trkpt>
      <trkpt lat="47.32352" lon="4.98568">
        <ele>345.88</ele>
        <time>2012-05-11T09:49:13Z</time>
      </trkpt>
      <trkpt lat="47.3234" lon="4.98553">
        <ele>346.263</ele>
        <time>2012-05-11T09:49:24Z</time>
      </trkpt>
      <trkpt lat="47.32332" lon="4.98533">
        <ele>346.22</ele>
        <time>2012-05-11T09:49:35Z</time>
      </trkpt>
      <trkpt lat="47.32328" lon="4.98513">
        <ele>347.337</ele>
        <time>2012-05-11T09:49:46Z</time>
      </trkpt>
      <trkpt lat="47.32325" lon="4.98493">
        <ele>346.591</ele>
        <time>2012-05-11T09:49:57Z</time>
      </trkpt>
      <trkpt lat="47.32323" lon="4.98478">
        <ele>347.563</ele>
        <time>2012-05-11T09:50:08Z</time>
      </trkpt>
      <trkpt lat="47.32322" lon="4.98458">
        <ele>348.233</ele>
        <time>2012-05-11T09:50:19Z</time>
      </trkpt>
      <trkpt lat="47.32322" lon="4.9844">
        <ele>347.199</ele>
        <time>2012-05-11T09:50:30Z</time>
      </trkpt>
      <trkpt lat="47.32317" lon="4.98417">
        <ele>347.144</ele>
        <time>2012-05-11T09:50:41Z</time>
      </trkpt>
      <trkpt lat="47.32303" lon="4.98402">
        <ele>347.913</ele>
        <time>2012-05-11T09:50:52Z</time>
      </trkpt>
      <trkpt lat="47.3229" lon="4.984">
        <ele>347.429</ele>
        <time>2012-05-11T09:51:03Z</time>
      </trkpt>
      <trkpt lat="47.32283" lon="4.98407">
        <ele>344.829</ele>
        <time>2012-05-11T09:51:14Z</time>
      </trkpt>
      <trkpt lat="47.32278" lon="4.98417">
        <ele>343.984</ele>
        <time>2012-05-11T09:51:25Z</time>
      </trkpt>
      <trkpt lat="47.32273" lon="4.98433">
        <ele>342.646</ele>
        <time>2012-05-11T09:51:36Z</time>
      </trkpt>
      <trkpt lat="47.32272" lon="4.98443">
        <ele>343.636</ele>
        <time>2012-05-11T09:51:47Z</time>
      </trkpt>
      <trkpt lat="47.32268" lon="4.98467">
        <ele>343.778</ele>
        <time>2012-05-11T09:51:58Z</time>
      </trkpt>
      <trkpt lat="47.3227" lon="4.98488">
        <ele>342.673</ele>
        <time>2012-05-11T09:52:09Z</time>
      </trkpt>
      <trkpt lat="47.32273" lon="4.9851">
        <ele>342.406</ele>
        <time>2012-05-11T09:52:20Z</time>
      </trkpt>
      <trkpt lat="47.32277" lon="4.98532">
        <ele>340.499</ele>
        <time>2012-05-11T09:52:31Z</time>
      </trkpt>
      <trkpt lat="47.3228" lon="4.98553">
        <ele>339.356</ele>
        <time>2012-05-11T09:52:42Z</time>
      </trkpt>
      <trkpt lat="47.32285" lon="4.98572">
        <ele>337.858</ele>
        <time>2012-05-11T09:52:53Z</time>
      </trkpt>
      <trkpt lat="47.32292" lon="4.9859">
        <ele>336.671</ele>
        <time>2012-05-11T09:53:04Z</time>
      </trkpt>
      <trkpt lat="47.32297" lon="4.98612">
        <ele>337.693</ele>
        <time>2012-05-11T09:53:15Z</time>
      </trkpt>
      <trkpt lat="47.32305" lon="4.9863">
        <ele>338.083</ele>
        <time>2012-05-11T09:53:26Z</time>
      </trkpt>
      <trkpt lat="47.3231" lon="4.98648">
        <ele>338.525</ele>
        <time>2012-05-11T09:53:37Z</time>
      </trkpt>
      <trkpt lat="47.32313" lon="4.98657">
        <ele>338.39</ele>
        <time>2012-05-11T09:53:48Z</time>
      </trkpt>
      <trkpt lat="47.32313" lon="4.98657">
        <ele>338.328</ele>
        <time>2012-05-11T09:53:59Z</time>
      </trkpt>
      <trkpt lat="47.32313" lon="4.98657">
        <ele>338.328</ele>
        <time>2012-05-11T09:54:10Z</time>
      </trkpt>
      <trkpt lat="47.32313" lon="4.98657">
        <ele>338.328</ele>
        <time>2012-05-11T09:54:21Z</time>
      </trkpt>
      <trkpt lat="47.32308" lon="4.98668">
        <ele>337.926</ele>
        <time>2012-05-11T09:54:32Z</time>
      </trkpt>
      <trkpt lat="47.32305" lon="4.98685">
        <ele>334.983</ele>
        <time>2012-05-11T09:54:43Z</time>
      </trkpt>
      <trkpt lat="47.32302" lon="4.98702">
        <ele>333.466</ele>
        <time>2012-05-11T09:54:54Z</time>
      </trkpt>
      <trkpt lat="47.323" lon="4.98715">
        <ele>330.733</ele>
        <time>2012-05-11T09:55:05Z</time>
      </trkpt>
      <trkpt lat="47.32298" lon="4.9873">
        <ele>329.149</ele>
        <time>2012-05-11T09:55:16Z</time>
      </trkpt>
      <trkpt lat="47.323" lon="4.98747">
        <ele>327.759</ele>
        <time>2012-05-11T09:55:27Z</time>
      </trkpt>
      <trkpt lat="47.32302" lon="4.98755">
        <ele>327.18</ele>
        <time>2012-05-11T09:55:38Z</time>
      </trkpt>
      <trkpt lat="47.32303" lon="4.98775">
        <ele>325.122</ele>
        <time>2012-05-11T09:55:49Z</time>
      </trkpt>
      <trkpt lat="47.32307" lon="4.98797">
        <ele>323.888</ele>
        <time>2012-05-11T09:56:00Z</time>
      </trkpt>
      <trkpt lat="47.32307" lon="4.98815">
        <ele>322.971</ele>
        <time>2012-05-11T09:56:11Z</time>
      </trkpt>
      <trkpt lat="47.3231" lon="4.98833">
        <ele>322.037</ele>
        <time>2012-05-11T09:56:22Z</time>
      </trkpt>
      <trkpt lat="47.32313" lon="4.98852">
        <ele>322.57</ele>
        <time>2012-05-11T09:56:33Z</time>
      </trkpt>
      <trkpt lat="47.32317" lon="4.98872">
        <ele>321.095</ele>
        <time>2012-05-11T09:56:44Z</time>
      </trkpt>
      <trkpt lat="47.32322" lon="4.98888">
        <ele>321.489</ele>
        <time>2012-05-11T09:56:55Z</time>
      </trkpt>
      <trkpt lat="47.32323" lon="4.98907">
        <ele>321.644</ele>
        <time>2012-05-11T09:57:06Z</time>
      </trkpt>
      <trkpt lat="47.32328" lon="4.98923">
        <ele>320.387</ele>
        <time>2012-05-11T09:57:17Z</time>
      </trkpt>
      <trkpt lat="47.3233" lon="4.98943">
        <ele>320.012</ele>
        <time>2012-05-11T09:57:28Z</time>
      </trkpt>
      <trkpt lat="47.32335" lon="4.9896">
        <ele>319.259</ele>
        <time>2012-05-11T09:57:39Z</time>
      </trkpt>
      <trkpt lat="47.32337" lon="4.98975">
        <ele>319.267</ele>
        <time>2012-05-11T09:57:50Z</time>
      </trkpt>
      <trkpt lat="47.32338" lon="4.98995">
        <ele>318.268</ele>
        <time>2012-05-11T09:58:01Z</time>
      </trkpt>
      <trkpt lat="47.3234" lon="4.99012">
        <ele>316.742</ele>
        <time>2012-05-11T09:58:12Z</time>
      </trkpt>
      <trkpt lat="47.3234" lon="4.99027">
        <ele>315.981</ele>
        <time>2012-05-11T09:58:23Z</time>
      </trkpt>
      <trkpt lat="47.32345" lon="4.99042">
        <ele>315.587</ele>
        <time>2012-05-11T09:58:34Z</time>
      </trkpt>
      <trkpt lat="47.32348" lon="4.99055">
        <ele>312.478</ele>
        <time>2012-05-11T09:58:45Z</time>
      </trkpt>
      <trkpt lat="47.32352" lon="4.99073">
        <ele>311.426</ele>
        <time>2012-05-11T09:58:56Z</time>
      </trkpt>
      <trkpt lat="47.3236" lon="4.99092">
        <ele>309.845</ele>
        <time>2012-05-11T09:59:07Z</time>
      </trkpt>
      <trkpt lat="47.32368" lon="4.99107">
        <ele>308.761</ele>
        <time>2012-05-11T09:59:18Z</time>
      </trkpt>
      <trkpt lat="47.32375" lon="4.99122">
        <ele>306.98</ele>
        <time>2012-05-11T09:59:29Z</time>
      </trkpt>
      <trkpt lat="47.32382" lon="4.99135">
        <ele>307.202</ele>
        <time>2012-05-11T09:59:40Z</time>
      </trkpt>
      <trkpt lat="47.32382" lon="4.99153">
        <ele>306.292</ele>
        <time>2012-05-11T09:59:51Z</time>
      </trkpt>
      <trkpt lat="47.32383" lon="4.9917">
        <ele>305.463</ele>
        <time>2012-05-11T10:00:02Z</time>
      </trkpt>
      <trkpt lat="47.32382" lon="4.99182">
        <ele>304.244</ele>
        <time>2012-05-11T10:00:13Z</time>
      </trkpt>
      <trkpt lat="47.32382" lon="4.99193">
        <ele>303.582</ele>
        <time>2012-05-11T10:00:24Z</time>
      </trkpt>
      <trkpt lat="47.32378" lon="4.99208">
        <ele>301.825</ele>
        <time>2012-05-11T10:00:35Z</time>
      </trkpt>
      <trkpt lat="47.32377" lon="4.99222">
        <ele>299.847</ele>
        <time>2012-05-11T10:00:46Z</time>
      </trkpt>
      <trkpt lat="47.32373" lon="4.99235">
        <ele>297.071</ele>
        <time>2012-05-11T10:00:57Z</time>
      </trkpt>
      <trkpt lat="47.3237" lon="4.99247">
        <ele>295.088</ele>
        <time>2012-05-11T10:01:08Z</time>
      </trkpt>
      <trkpt lat="47.32368" lon="4.99255">
        <ele>292.094</ele>
        <time>2012-05-11T10:01:19Z</time>
      </trkpt>
      <trkpt lat="47.32363" lon="4.99268">
        <ele>289.764</ele>
        <time>2012-05-11T10:01:30Z</time>
      </trkpt>
      <trkpt lat="47.32362" lon="4.99287">
        <ele>288.511</ele>
        <time>2012-05-11T10:01:41Z</time>
      </trkpt>
      <trkpt lat="47.32362" lon="4.99305">
        <ele>288.829</ele>
        <time>2012-05-11T10:01:52Z</time>
      </trkpt>
      <trkpt lat="47.3236" lon="4.99315">
        <ele>288.434</ele>
        <time>2012-05-11T10:02:03Z</time>
      </trkpt>
      <trkpt lat="47.32358" lon="4.99327">
        <ele>289.211</ele>
        <time>2012-05-11T10:02:14Z</time>
      </trkpt>
      <trkpt lat="47.32358" lon="4.99347">
        <ele>290.1</ele>
        <time>2012-05-11T10:02:25Z</time>
      </trkpt>
      <trkpt lat="47.32352" lon="4.99362">
        <ele>287.755</ele>
        <time>2012-05-11T10:02:36Z</time>
      </trkpt>
      <trkpt lat="47.32345" lon="4.99382">
        <ele>285.246</ele>
        <time>2012-05-11T10:02:47Z</time>
      </trkpt>
      <trkpt lat="47.32343" lon="4.99397">
        <ele>284.985</ele>
        <time>2012-05-11T10:02:58Z</time>
      </trkpt>
      <trkpt lat="47.32342" lon="4.99405">
        <ele>282.714</ele>
        <time>2012-05-11T10:03:09Z</time>
      </trkpt>
      <trkpt lat="47.32337" lon="4.9942">
        <ele>281.414</ele>
        <time>2012-05-11T10:03:20Z</time>
      </trkpt>
      <trkpt lat="47.32332" lon="4.9944">
        <ele>280.133</ele>
        <time>2012-05-11T10:03:31Z</time>
      </trkpt>
      <trkpt lat="47.32333" lon="4.99462">
        <ele>280.198</ele>
        <time>2012-05-11T10:03:42Z</time>
      </trkpt>
      <trkpt lat="47.32333" lon="4.99482">
        <ele>276.982</ele>
        <time>2012-05-11T10:03:53Z</time>
      </trkpt>
      <trkpt lat="47.32335" lon="4.99508">
        <ele>273.847</ele>
        <time>2012-05-11T10:04:04Z</time>
      </trkpt>
      <trkpt lat="47.32337" lon="4.99532">
        <ele>272.458</ele>
        <time>2012-05-11T10:04:15Z</time>
      </trkpt>
      <trkpt lat="47.32338" lon="4.99555">
        <ele>271.614</ele>
        <time>2012-05-11T10:04:26Z</time>
      </trkpt>
      <trkpt lat="47.32338" lon="4.99578">
        <ele>269.481</ele>
        <time>2012-05-11T10:04:37Z</time>
      </trkpt>
      <trkpt lat="47.32338" lon="4.99593">
        <ele>268.676</ele>
        <time>2012-05-11T10:04:48Z</time>
      </trkpt>
      <trkpt lat="47.32333" lon="4.99605">
        <ele>272.793</ele>
        <time>2012-05-11T10:04:59Z</time>
      </trkpt>
      <trkpt lat="47.32335" lon="4.99627">
        <ele>273.117</ele>
        <time>2012-05-11T10:05:10Z</time>
      </trkpt>
      <trkpt lat="47.32338" lon="4.99648">
        <ele>272.485</ele>
        <time>2012-05-11T10:05:21Z</time>
      </trkpt>
      <trkpt lat="47.32343" lon="4.99667">
        <ele>274.659</ele>
        <time>2012-05-11T10:05:32Z</time>
      </trkpt>
      <trkpt lat="47.32353" lon="4.99687">
        <ele>275.146</ele>
        <time>2012-05-11T10:05:43Z</time>
      </trkpt>
      <trkpt lat="47.32358" lon="4.99703">
        <ele>277.912</ele>
        <time>2012-05-11T10:05:54Z</time>
      </trkpt>
      <trkpt lat="47.32368" lon="4.9972">
        <ele>275.342</ele>
        <time>2012-05-11T10:06:05Z</time>
      </trkpt>
      <trkpt lat="47.32367" lon="4.9974">
        <ele>274.948</ele>
        <time>2012-05-11T10:06:16Z</time>
      </trkpt>
      <trkpt lat="47.32365" lon="4.99755">
        <ele>275.534</ele>
        <time>2012-05-11T10:06:27Z</time>
      </trkpt>
      <trkpt lat="47.32358" lon="4.9977">
        <ele>278.832</ele>
        <time>2012-05-11T10:06:38Z</time>
      </trkpt>
      <trkpt lat="47.3235" lon="4.99785">
        <ele>283.744</ele>
        <time>2012-05-11T10:06:49Z</time>
      </trkpt>
      <trkpt lat="47.32345" lon="4.99805">
        <ele>286.869</ele>
        <time>2012-05-11T10:07:00Z</time>
      </trkpt>
      <trkpt lat="47.32337" lon="4.99827">
        <ele>286.996</ele>
        <time>2012-05-11T10:07:11Z</time>
      </trkpt>
      <trkpt lat="47.32335" lon="4.99847">
        <ele>282.987</ele>
        <time>2012-05-11T10:07:22Z</time>
      </trkpt>
      <trkpt lat="47.32348" lon="4.99872">
        <ele>278.619</ele>
        <time>2012-05-11T10:07:33Z</time>
      </trkpt>
      <trkpt lat="47.32358" lon="4.99893">
        <ele>277.388</ele>
        <time>2012-05-11T10:07:44Z</time>
      </trkpt>
      <trkpt lat="47.3237" lon="4.99913">
        <ele>274.019</ele>
        <time>2012-05-11T10:07:55Z</time>
      </trkpt>
      <trkpt lat="47.32378" lon="4.99932">
        <ele>274.729</ele>
        <time>2012-05-11T10:08:06Z</time>
      </trkpt>
      <trkpt lat="47.32385" lon="4.99953">
        <ele>272.518</ele>
        <time>2012-05-11T10:08:17Z</time>
      </trkpt>
      <trkpt lat="47.32393" lon="4.99973">
        <ele>271.088</ele>
        <time>2012-05-11T10:08:28Z</time>
      </trkpt>
      <trkpt lat="47.32392" lon="4.99997">
        <ele>268.193</ele>
        <time>2012-05-11T10:08:39Z</time>
      </trkpt>
      <trkpt lat="47.32392" lon="5.0002">
        <ele>266.939</ele>
        <time>2012-05-11T10:08:50Z</time>
      </trkpt>
      <trkpt lat="47.3239" lon="5.0004">
        <ele>264.877</ele>
        <time>2012-05-11T10:09:01Z</time>
      </trkpt>
      <trkpt lat="47.32387" lon="5.00065">
        <ele>262.071</ele>
        <time>2012-05-11T10:09:12Z</time>
      </trkpt>
      <trkpt lat="47.3238" lon="5.00087">
        <ele>259.551</ele>
        <time>2012-05-11T10:09:23Z</time>
      </trkpt>
      <trkpt lat="47.32382" lon="5.00108">
        <ele>258.531</ele>
        <time>2012-05-11T10:09:34Z</time>
      </trkpt>
      <trkpt lat="47.3238" lon="5.0013">
        <ele>256.962</ele>
        <time>2012-05-11T10:09:45Z</time>
      </trkpt>
      <trkpt lat="47.32375" lon="5.0015">
        <ele>255.32</ele>
        <time>2012-05-11T10:09:56Z</time>
      </trkpt>
      <trkpt lat="47.3237" lon="5.00168">
        <ele>254.808</ele>
        <time>2012-05-11T10:10:07Z</time>
      </trkpt>
      <trkpt lat="47.32365" lon="5.00188">
        <ele>255.634</ele>
        <time>2012-05-11T10:10:18Z</time>
      </trkpt>
      <trkpt lat="47.32363" lon="5.00212">
        <ele>254.91</ele>
        <time>2012-05-11T10:10:29Z</time>
      </trkpt>
      <trkpt lat="47.32365" lon="5.00233">
        <ele>255.783</ele>
        <time>2012-05-11T10:10:40Z</time>
      </trkpt>
      <trkpt lat="47.3236" lon="5.0025">
        <ele>259.599</ele>
        <time>2012-05-11T10:10:51Z</time>
      </trkpt>
      <trkpt lat="47.32353" lon="5.00267">
        <ele>261.797</ele>
        <time>2012-05-11T10:11:02Z</time>
      </trkpt>
      <trkpt lat="47.32342" lon="5.00278">
        <ele>261.544</ele>
        <time>2012-05-11T10:11:13Z</time>
      </trkpt>
      <trkpt lat="47.32333" lon="5.00293">
        <ele>261.763</ele>
        <time>2012-05-11T10:11:24Z</time>
      </trkpt>
      <trkpt lat="47.32325" lon="5.00308">
        <ele>262.808</ele>
        <time>2012-05-11T10:11:35Z</time>
      </trkpt>
      <trkpt lat="47.32322" lon="5.0032">
        <ele>262.943</ele>
        <time>2012-05-11T10:11:46Z</time>
      </trkpt>
      <trkpt lat="47.32328" lon="5.00332">
        <ele>264.687</ele>
        <time>2012-05-11T10:11:57Z</time>
      </trkpt>
      <trkpt lat="47.32323" lon="5.00347">
        <ele>265.919</ele>
        <time>2012-05-11T10:12:08Z</time>
      </trkpt>
      <trkpt lat="47.32332" lon="5.00363">
        <ele>269.668</ele>
        <time>2012-05-11T10:12:19Z</time>
      </trkpt>
      <trkpt lat="47.32343" lon="5.0037">
        <ele>270.771</ele>
        <time>2012-05-11T10:12:30Z</time>
      </trkpt>
      <trkpt lat="47.32358" lon="5.00378">
        <ele>270.067</ele>
        <time>2012-05-11T10:12:41Z</time>
      </trkpt>
      <trkpt lat="47.32367" lon="5.00397">
        <ele>270.256</ele>
        <time>2012-05-11T10:12:52Z</time>
      </trkpt>
      <trkpt lat="47.3236" lon="5.00413">
        <ele>267.97</ele>
        <time>2012-05-11T10:13:03Z</time>
      </trkpt>
      <trkpt lat="47.3236" lon="5.0043">
        <ele>269.218</ele>
        <time>2012-05-11T10:13:14Z</time>
      </trkpt>
      <trkpt lat="47.3237" lon="5.00447">
        <ele>268.007</ele>
        <time>2012-05-11T10:13:25Z</time>
      </trkpt>
      <trkpt lat="47.32382" lon="5.00462">
        <ele>266.78</ele>
        <time>2012-05-11T10:13:36Z</time>
      </trkpt>
      <trkpt lat="47.32382" lon="5.00475">
        <ele>264.785</ele>
        <time>2012-05-11T10:13:47Z</time>
      </trkpt>
      <trkpt lat="47.32378" lon="5.00492">
        <ele>261.917</ele>
        <time>2012-05-11T10:13:58Z</time>
      </trkpt>
      <trkpt lat="47.32377" lon="5.00507">
        <ele>260.912</ele>
        <time>2012-05-11T10:14:09Z</time>
      </trkpt>
      <trkpt lat="47.32372" lon="5.00522">
        <ele>260.934</ele>
        <time>2012-05-11T10:14:20Z</time>
      </trkpt>
      <trkpt lat="47.32368" lon="5.00542">
        <ele>262.206</ele>
        <time>2012-05-11T10:14:31Z</time>
      </trkpt>
      <trkpt lat="47.3237" lon="5.00562">
        <ele>265.389</ele>
        <time>2012-05-11T10:14:42Z</time>
      </trkpt>
      <trkpt lat="47.32375" lon="5.0058">
        <ele>264.999</ele>
        <time>2012-05-11T10:14:53Z</time>
      </trkpt>
      <trkpt lat="47.32378" lon="5.00603">
        <ele>265.767</ele>
        <time>2012-05-11T10:15:04Z</time>
      </trkpt>
      <trkpt lat="47.3238" lon="5.00622">
        <ele>266.486</ele>
        <time>2012-05-11T10:15:15Z</time>
      </trkpt>
      <trkpt lat="47.32385" lon="5.00642">
        <ele>267.64</ele>
        <time>2012-05-11T10:15:26Z</time>
      </trkpt>
      <trkpt lat="47.3239" lon="5.00662">
        <ele>267.547</ele>
        <time>2012-05-11T10:15:37Z</time>
      </trkpt>
      <trkpt lat="47.32397" lon="5.00683">
        <ele>264.658</ele>
        <time>2012-05-11T10:15:48Z</time>
      </trkpt>
      <trkpt lat="47.32403" lon="5.00703">
        <ele>265.174</ele>
        <time>2012-05-11T10:15:59Z</time>
      </trkpt>
      <trkpt lat="47.32408" lon="5.00722">
        <ele>265.968</ele>
        <time>2012-05-11T10:16:10Z</time>
      </trkpt>
      <trkpt lat="47.32413" lon="5.00738">
        <ele>266.929</ele>
        <time>2012-05-11T10:16:21Z</time>
      </trkpt>
      <trkpt lat="47.32418" lon="5.0075">
        <ele>267.795</ele>
        <time>2012-05-11T10:16:32Z</time>
      </trkpt>
      <trkpt lat="47.32418" lon="5.00755">
        <ele>266.652</ele>
        <time>2012-05-11T10:16:43Z</time>
      </trkpt>
      <trkpt lat="47.3242" lon="5.00755">
        <ele>265.354</ele>
        <time>2012-05-11T10:16:54Z</time>
      </trkpt>
      <trkpt lat="47.3242" lon="5.00755">
        <ele>265.354</ele>
        <time>2012-05-11T10:17:05Z</time>
      </trkpt>
      <trkpt lat="47.3242" lon="5.00757">
        <ele>264.755</ele>
        <time>2012-05-11T10:17:16Z</time>
      </trkpt>
      <trkpt lat="47.3242" lon="5.00757">
        <ele>264.755</ele>
        <time>2012-05-11T10:17:27Z</time>
      </trkpt>
      <trkpt lat="47.3242" lon="5.00757">
        <ele>264.755</ele>
        <time>2012-05-11T10:17:38Z</time>
      </trkpt>
      <trkpt lat="47.3242" lon="5.00757">
        <ele>264.755</ele>
        <time>2012-05-11T10:17:49Z</time>
      </trkpt>
      <trkpt lat="47.3242" lon="5.00757">
        <ele>264.755</ele>
        <time>2012-05-11T10:18:00Z</time>
      </trkpt>
      <trkpt lat="47.3242" lon="5.00757">
        <ele>264.755</ele>
        <time>2012-05-11T10:18:11Z</time>
      </trkpt>
      <trkpt lat="47.3242" lon="5.00757">
        <ele>264.755</ele>
        <time>2012-05-11T10:18:22Z</time>
      </trkpt>
      <trkpt lat="47.3242" lon="5.00757">
        <ele>264.755</ele>
        <time>2012-05-11T10:18:33Z</time>
      </trkpt>
      <trkpt lat="47.3242" lon="5.00757">
        <ele>264.755</ele>
        <time>2012-05-11T10:18:44Z</time>
      </trkpt>
      <trkpt lat="47.3242" lon="5.00757">
        <ele>264.755</ele>
        <time>2012-05-11T10:18:55Z</time>
      </trkpt>
      <trkpt lat="47.3242" lon="5.00757">
        <ele>264.755</ele>
        <time>2012-05-11T10:19:06Z</time>
      </trkpt>
      <trkpt lat="47.3242" lon="5.00757">
        <ele>264.755</ele>
        <time>2012-05-11T10:19:17Z</time>
      </trkpt>
      <trkpt lat="47.3242" lon="5.00757">
        <ele>264.755</ele>
        <time>2012-05-11T10:19:28Z</time>
      </trkpt>
      <trkpt lat="47.32418" lon="5.00765">
        <ele>263.819</ele>
        <time>2012-05-11T10:19:39Z</time>
      </trkpt>
      <trkpt lat="47.32418" lon="5.00773">
        <ele>262.78</ele>
        <time>2012-05-11T10:19:50Z</time>
      </trkpt>
      <trkpt lat="47.32417" lon="5.00783">
        <ele>262.872</ele>
        <time>2012-05-11T10:20:01Z</time>
      </trkpt>
      <trkpt lat="47.32415" lon="5.00793">
        <ele>263.832</ele>
        <time>2012-05-11T10:20:12Z</time>
      </trkpt>
      <trkpt lat="47.32412" lon="5.00808">
        <ele>264.016</ele>
        <time>2012-05-11T10:20:23Z</time>
      </trkpt>
      <trkpt lat="47.32407" lon="5.00823">
        <ele>264.347</ele>
        <time>2012-05-11T10:20:34Z</time>
      </trkpt>
      <trkpt lat="47.32402" lon="5.00832">
        <ele>263.717</ele>
        <time>2012-05-11T10:20:45Z</time>
      </trkpt>
      <trkpt lat="47.32402" lon="5.00833">
        <ele>264.094</ele>
        <time>2012-05-11T10:20:56Z</time>
      </trkpt>
      <trkpt lat="47.32402" lon="5.00833">
        <ele>264.342</ele>
        <time>2012-05-11T10:21:07Z</time>
      </trkpt>
      <trkpt lat="47.32402" lon="5.00835">
        <ele>264.476</ele>
        <time>2012-05-11T10:21:18Z</time>
      </trkpt>
      <trkpt lat="47.32402" lon="5.00835">
        <ele>264.312</ele>
        <time>2012-05-11T10:21:29Z</time>
      </trkpt>
      <trkpt lat="47.32402" lon="5.00835">
        <ele>264.312</ele>
        <time>2012-05-11T10:21:40Z</time>
      </trkpt>
      <trkpt lat="47.32402" lon="5.00835">
        <ele>264.312</ele>
        <time>2012-05-11T10:21:51Z</time>
      </trkpt>
      <trkpt lat="47.32402" lon="5.00835">
        <ele>264.863</ele>
        <time>2012-05-11T10:22:02Z</time>
      </trkpt>
      <trkpt lat="47.324" lon="5.00837">
        <ele>264.224</ele>
        <time>2012-05-11T10:22:13Z</time>
      </trkpt>
      <trkpt lat="47.324" lon="5.00837">
        <ele>264.266</ele>
        <time>2012-05-11T10:22:24Z</time>
      </trkpt>
      <trkpt lat="47.324" lon="5.00837">
        <ele>264.507</ele>
        <time>2012-05-11T10:22:35Z</time>
      </trkpt>
    </trkseg>
  </trk>
</gpx>